Observation data for Crane on 02/13/2020      Previous  Date  Next       Current Mesonet Observations  Soil Data  Daily Summary Page  Observations in Plain Language
KCR2 130600Z 03001KT 04/M02 A3015 RMK A01 T00411020  RH  064%=      5-min Rain = 0
KCR2 130601Z 03001KT 04/M02 A3015 RMK A01 T00411020  RH  064%=      5-min Rain = 0
KCR2 130602Z 03001KT 04/M02 A3015 RMK A01 T00411020  RH  065%=      5-min Rain = 0
KCR2 130603Z 03001KT 04/M02 A3015 RMK A01 T00401020  RH  065%=      5-min Rain = 0
KCR2 130604Z 03001KT 04/M02 A3015 RMK A01 T00401020  RH  065%=      5-min Rain = 0
KCR2 130605Z 02001KT 04/M02 A3015 RMK A01 T00391019  RH  066%=      5-min Rain = 0
KCR2 130606Z 03001KT 04/M02 A3015 RMK A01 T00381019  RH  066%=      5-min Rain = 0
KCR2 130607Z 03002KT 04/M02 A3015 RMK A01 T00381020  RH  066%=      5-min Rain = 0
KCR2 130608Z 04002KT 04/M02 A3015 RMK A01 T00381020  RH  066%=      5-min Rain = 0
KCR2 130609Z 04002KT 04/M02 A3015 RMK A01 T00391021  RH  065%=      5-min Rain = 0
KCR2 130610Z 03001KT 04/M02 A3015 RMK A01 T00381021  RH  065%=      5-min Rain = 0
KCR2 130611Z 02001KT 04/M02 A3015 RMK A01 T00381019  RH  066%=      5-min Rain = 0
KCR2 130612Z 02001KT 04/M02 A3015 RMK A01 T00371016  RH  068%=      5-min Rain = 0
KCR2 130613Z 36001KT 04/M02 A3015 RMK A01 T00351017  RH  069%=      5-min Rain = 0
KCR2 130614Z 02001KT 04/M02 A3015 RMK A01 T00351019  RH  068%=      5-min Rain = 0
KCR2 130615Z 01002KT 04/M02 A3015 RMK A01 T00351019  RH  067%=      5-min Rain = 0
KCR2 130616Z 01002KT 04/M02 A3015 RMK A01 T00371019  RH  067%=      5-min Rain = 0
KCR2 130617Z 02003KT 04/M02 A3015 RMK A01 T00371019  RH  067%=      5-min Rain = 0
KCR2 130618Z 01003KT 04/M02 A3015 RMK A01 T00361019  RH  067%=      5-min Rain = 0
KCR2 130619Z 02003KT 04/M02 A3015 RMK A01 T00351019  RH  068%=      5-min Rain = 0
KCR2 130620Z 02003KT 04/M02 A3015 RMK A01 T00351019  RH  068%=      5-min Rain = 0
KCR2 130621Z 02004KT 04/M02 A3015 RMK A01 T00361019  RH  067%=      5-min Rain = 0
KCR2 130622Z 03003KT 04/M02 A3015 RMK A01 T00371019  RH  067%=      5-min Rain = 0
KCR2 130623Z 03004KT 04/M02 A3015 RMK A01 T00371019  RH  067%=      5-min Rain = 0
KCR2 130624Z 03004KT 04/M02 A3015 RMK A01 T00361019  RH  067%=      5-min Rain = 0
KCR2 130625Z 03005KT 04/M02 A3015 RMK A01 T00371019  RH  067%=      5-min Rain = 0
KCR2 130626Z 03004KT 04/M02 A3015 RMK A01 T00371018  RH  067%=      5-min Rain = 0
KCR2 130627Z 03005KT 04/M02 A3015 RMK A01 T00371018  RH  067%=      5-min Rain = 0
KCR2 130628Z 03004KT 04/M02 A3015 RMK A01 T00371019  RH  067%=      5-min Rain = 0
KCR2 130629Z 03005KT 04/M02 A3015 RMK A01 T00371019  RH  067%=      5-min Rain = 0
KCR2 130630Z 03006KT 04/M02 A3014 RMK A01 T00371019  RH  067%=      5-min Rain = 0
KCR2 130631Z 02006KT 04/M02 A3014 RMK A01 T00371018  RH  067%=      5-min Rain = 0
KCR2 130632Z 02006KT 04/M02 A3014 RMK A01 T00361018  RH  068%=      5-min Rain = 0
KCR2 130633Z 03005KT 04/M02 A3014 RMK A01 T00351017  RH  068%=      5-min Rain = 0
KCR2 130634Z 03006KT 03/M02 A3014 RMK A01 T00341017  RH  069%=      5-min Rain = 0
KCR2 130635Z 03005KT 03/M02 A3014 RMK A01 T00341017  RH  069%=      5-min Rain = 0
KCR2 130636Z 03005KT 03/M02 A3014 RMK A01 T00341017  RH  069%=      5-min Rain = 0
KCR2 130637Z 04004KT 03/M02 A3014 RMK A01 T00341017  RH  069%=      5-min Rain = 0
KCR2 130638Z 05004KT 03/M02 A3014 RMK A01 T00341017  RH  069%=      5-min Rain = 0
KCR2 130639Z 05003KT 03/M02 A3014 RMK A01 T00341017  RH  069%=      5-min Rain = 0
KCR2 130640Z 05004KT 03/M02 A3014 RMK A01 T00331016  RH  070%=      5-min Rain = 0
KCR2 130641Z 05004KT 03/M02 A3014 RMK A01 T00321016  RH  071%=      5-min Rain = 0
KCR2 130642Z 05004KT 03/M02 A3014 RMK A01 T00311015  RH  071%=      5-min Rain = 0
KCR2 130643Z 06004KT 03/M02 A3014 RMK A01 T00311015  RH  072%=      5-min Rain = 0
KCR2 130644Z 07004KT 03/M02 A3014 RMK A01 T00301015  RH  072%=      5-min Rain = 0
KCR2 130645Z 07004KT 03/M02 A3014 RMK A01 T00281016  RH  073%=      5-min Rain = 0
KCR2 130646Z 07004KT 03/M02 A3014 RMK A01 T00271016  RH  073%=      5-min Rain = 0
KCR2 130647Z 08003KT 03/M02 A3015 RMK A01 T00261016  RH  074%=      5-min Rain = 0
KCR2 130648Z 09003KT 03/M02 A3015 RMK A01 T00251017  RH  074%=      5-min Rain = 0
KCR2 130649Z 09003KT 03/M02 A3015 RMK A01 T00261016  RH  074%=      5-min Rain = 0
KCR2 130650Z 09003KT 03/M02 A3015 RMK A01 T00251016  RH  074%=      5-min Rain = 0
KCR2 130651Z 10003KT 03/M02 A3015 RMK A01 T00251016  RH  074%=      5-min Rain = 0
KCR2 130652Z 09003KT 03/M02 A3015 RMK A01 T00251017  RH  074%=      5-min Rain = 0
KCR2 130653Z 09003KT 03/M02 A3015 RMK A01 T00261017  RH  074%=      5-min Rain = 0
KCR2 130654Z 09003KT 03/M02 A3015 RMK A01 T00271017  RH  073%=      5-min Rain = 0
KCR2 130655Z 09003KT 03/M02 A3015 RMK A01 T00281016  RH  073%=      5-min Rain = 0
KCR2 130656Z 09004KT 03/M02 A3015 RMK A01 T00281016  RH  072%=      5-min Rain = 0
KCR2 130657Z 09004KT 03/M02 A3015 RMK A01 T00281017  RH  072%=      5-min Rain = 0
KCR2 130658Z 08004KT 03/M02 A3015 RMK A01 T00281018  RH  072%=      5-min Rain = 0
KCR2 130659Z 08004KT 03/M02 A3015 RMK A01 T00271017  RH  073%=      5-min Rain = 0
KCR2 130700Z 08004KT 03/M02 A3015 RMK A01 T00261017  RH  073%=      5-min Rain = 0
KCR2 130701Z 08004KT 03/M02 A3015 RMK A01 T00261016  RH  074%=      5-min Rain = 0
KCR2 130702Z 08004KT 03/M02 A3015 RMK A01 T00251016  RH  074%=      5-min Rain = 0
KCR2 130703Z 08004KT 02/M02 A3015 RMK A01 T00241016  RH  075%=      5-min Rain = 0
KCR2 130704Z 08004KT 02/M02 A3015 RMK A01 T00241016  RH  075%=      5-min Rain = 0
KCR2 130705Z 08004KT 02/M02 A3015 RMK A01 T00231016  RH  075%=      5-min Rain = 0
KCR2 130706Z 08004KT 02/M02 A3015 RMK A01 T00221016  RH  076%=      5-min Rain = 0
KCR2 130707Z 08004KT 02/M02 A3015 RMK A01 T00201015  RH  077%=      5-min Rain = 0
KCR2 130708Z 09004KT 02/M02 A3015 RMK A01 T00191016  RH  078%=      5-min Rain = 0
KCR2 130709Z 09005KT 02/M02 A3015 RMK A01 T00191016  RH  078%=      5-min Rain = 0
KCR2 130710Z 09005KT 02/M02 A3015 RMK A01 T00181016  RH  078%=      5-min Rain = 0
KCR2 130711Z 09005KT 02/M02 A3015 RMK A01 T00181016  RH  078%=      5-min Rain = 0
KCR2 130712Z 09005KT 02/M02 A3015 RMK A01 T00181016  RH  078%=      5-min Rain = 0
KCR2 130713Z 08005KT 02/M02 A3015 RMK A01 T00191016  RH  078%=      5-min Rain = 0
KCR2 130714Z 08005KT 02/M02 A3015 RMK A01 T00191017  RH  077%=      5-min Rain = 0
KCR2 130715Z 08005KT 02/M02 A3015 RMK A01 T00191016  RH  077%=      5-min Rain = 0
KCR2 130716Z 08005KT 02/M02 A3015 RMK A01 T00191016  RH  077%=      5-min Rain = 0
KCR2 130717Z 08005KT 02/M02 A3015 RMK A01 T00191016  RH  077%=      5-min Rain = 0
KCR2 130718Z 08005KT 02/M02 A3015 RMK A01 T00191016  RH  077%=      5-min Rain = 0
KCR2 130719Z 08005KT 02/M02 A3015 RMK A01 T00191017  RH  077%=      5-min Rain = 0
KCR2 130720Z 08005KT 02/M02 A3015 RMK A01 T00191016  RH  077%=      5-min Rain = 0
KCR2 130721Z 08005KT 02/M02 A3015 RMK A01 T00191017  RH  077%=      5-min Rain = 0
KCR2 130722Z 08005KT 02/M02 A3015 RMK A01 T00181017  RH  078%=      5-min Rain = 0
KCR2 130723Z 08005KT 02/M02 A3015 RMK A01 T00181017  RH  078%=      5-min Rain = 0
KCR2 130724Z 08005KT 02/M02 A3015 RMK A01 T00181016  RH  078%=      5-min Rain = 0
KCR2 130725Z 09005KT 02/M02 A3015 RMK A01 T00181016  RH  078%=      5-min Rain = 0
KCR2 130726Z 08005KT 02/M02 A3015 RMK A01 T00181017  RH  078%=      5-min Rain = 0
KCR2 130727Z 08005KT 02/M02 A3015 RMK A01 T00191017  RH  077%=      5-min Rain = 0
KCR2 130728Z 08004KT 02/M02 A3015 RMK A01 T00191017  RH  077%=      5-min Rain = 0
KCR2 130729Z 07004KT 02/M02 A3015 RMK A01 T00211017  RH  076%=      5-min Rain = 0
KCR2 130730Z 08004KT 02/M02 A3015 RMK A01 T00221018  RH  075%=      5-min Rain = 0
KCR2 130731Z 07005KT 02/M02 A3015 RMK A01 T00221018  RH  075%=      5-min Rain = 0
KCR2 130732Z 08004KT 02/M02 A3015 RMK A01 T00221018  RH  075%=      5-min Rain = 0
KCR2 130733Z 09004KT 02/M02 A3015 RMK A01 T00221018  RH  075%=      5-min Rain = 0
KCR2 130734Z 08005KT 02/M02 A3015 RMK A01 T00211018  RH  075%=      5-min Rain = 0
KCR2 130735Z 08005KT 02/M02 A3015 RMK A01 T00211018  RH  075%=      5-min Rain = 0
KCR2 130736Z 08005KT 02/M02 A3015 RMK A01 T00211018  RH  076%=      5-min Rain = 0
KCR2 130737Z 07004KT 02/M02 A3015 RMK A01 T00201018  RH  076%=      5-min Rain = 0
KCR2 130738Z 07004KT 02/M02 A3015 RMK A01 T00201017  RH  076%=      5-min Rain = 0
KCR2 130739Z 07004KT 02/M02 A3015 RMK A01 T00201017  RH  076%=      5-min Rain = 0
KCR2 130740Z 07004KT 02/M02 A3015 RMK A01 T00201017  RH  077%=      5-min Rain = 0
KCR2 130741Z 07004KT 02/M02 A3015 RMK A01 T00201017  RH  077%=      5-min Rain = 0
KCR2 130742Z 07004KT 02/M02 A3015 RMK A01 T00201018  RH  076%=      5-min Rain = 0
KCR2 130743Z 07004KT 02/M02 A3015 RMK A01 T00201018  RH  076%=      5-min Rain = 0
KCR2 130744Z 07004KT 02/M02 A3015 RMK A01 T00191018  RH  076%=      5-min Rain = 0
KCR2 130745Z 07004KT 02/M02 A3015 RMK A01 T00201018  RH  076%=      5-min Rain = 0
KCR2 130746Z 07004KT 02/M02 A3015 RMK A01 T00221018  RH  075%=      5-min Rain = 0
KCR2 130747Z 07004KT 02/M02 A3015 RMK A01 T00231018  RH  074%=      5-min Rain = 0
KCR2 130748Z 07004KT 02/M02 A3015 RMK A01 T00241018  RH  074%=      5-min Rain = 0
KCR2 130749Z 07004KT 03/M02 A3016 RMK A01 T00251019  RH  073%=      5-min Rain = 0
KCR2 130750Z 07003KT 03/M02 A3016 RMK A01 T00251019  RH  073%=      5-min Rain = 0
KCR2 130751Z 06003KT 03/M02 A3016 RMK A01 T00251019  RH  073%=      5-min Rain = 0
KCR2 130752Z 06003KT 03/M02 A3016 RMK A01 T00251019  RH  073%=      5-min Rain = 0
KCR2 130753Z 05003KT 03/M02 A3015 RMK A01 T00251019  RH  073%=      5-min Rain = 0
KCR2 130754Z 05003KT 03/M02 A3015 RMK A01 T00251019  RH  073%=      5-min Rain = 0
KCR2 130755Z 06003KT 03/M02 A3015 RMK A01 T00251019  RH  073%=      5-min Rain = 0
KCR2 130756Z 06003KT 03/M02 A3015 RMK A01 T00251019  RH  073%=      5-min Rain = 0
KCR2 130757Z 07003KT 02/M02 A3015 RMK A01 T00241019  RH  073%=      5-min Rain = 0
KCR2 130758Z 07003KT 02/M02 A3016 RMK A01 T00231019  RH  074%=      5-min Rain = 0
KCR2 130759Z 08003KT 02/M02 A3016 RMK A01 T00231018  RH  074%=      5-min Rain = 0
KCR2 130800Z 08003KT 02/M02 A3016 RMK A01 T00241018  RH  074%=      5-min Rain = 0
KCR2 130801Z 08003KT 02/M02 A3016 RMK A01 T00241018  RH  074%=      5-min Rain = 0
KCR2 130802Z 08003KT 03/M02 A3016 RMK A01 T00251018  RH  073%=      5-min Rain = 0
KCR2 130803Z 08003KT 03/M02 A3016 RMK A01 T00251019  RH  073%=      5-min Rain = 0
KCR2 130804Z 08003KT 03/M02 A3016 RMK A01 T00251018  RH  073%=      5-min Rain = 0
KCR2 130805Z 08003KT 03/M02 A3016 RMK A01 T00251019  RH  073%=      5-min Rain = 0
KCR2 130806Z 07003KT 03/M02 A3016 RMK A01 T00261018  RH  073%=      5-min Rain = 0
KCR2 130807Z 07003KT 03/M02 A3016 RMK A01 T00261018  RH  073%=      5-min Rain = 0
KCR2 130808Z 07003KT 03/M02 A3016 RMK A01 T00261018  RH  073%=      5-min Rain = 0
KCR2 130809Z 07004KT 03/M02 A3016 RMK A01 T00261018  RH  073%=      5-min Rain = 0
KCR2 130810Z 07003KT 03/M02 A3016 RMK A01 T00261019  RH  073%=      5-min Rain = 0
KCR2 130811Z 07004KT 02/M02 A3016 RMK A01 T00241019  RH  073%=      5-min Rain = 0
KCR2 130812Z 07004KT 02/M02 A3016 RMK A01 T00221019  RH  074%=      5-min Rain = 0
KCR2 130813Z 07004KT 02/M02 A3016 RMK A01 T00211020  RH  075%=      5-min Rain = 0
KCR2 130814Z 07004KT 02/M02 A3016 RMK A01 T00201020  RH  075%=      5-min Rain = 0
KCR2 130815Z 07004KT 02/M02 A3016 RMK A01 T00201020  RH  075%=      5-min Rain = 0
KCR2 130816Z 07003KT 02/M02 A3016 RMK A01 T00201019  RH  075%=      5-min Rain = 0
KCR2 130817Z 06003KT 02/M02 A3016 RMK A01 T00211020  RH  074%=      5-min Rain = 0
KCR2 130818Z 06003KT 02/M02 A3016 RMK A01 T00211020  RH  074%=      5-min Rain = 0
KCR2 130819Z 07003KT 02/M02 A3016 RMK A01 T00211020  RH  074%=      5-min Rain = 0
KCR2 130820Z 07003KT 02/M02 A3016 RMK A01 T00211020  RH  074%=      5-min Rain = 0
KCR2 130821Z 07003KT 02/M02 A3016 RMK A01 T00211020  RH  074%=      5-min Rain = 0
KCR2 130822Z 07004KT 02/M02 A3016 RMK A01 T00221020  RH  074%=      5-min Rain = 0
KCR2 130823Z 07004KT 02/M02 A3016 RMK A01 T00221019  RH  074%=      5-min Rain = 0
KCR2 130824Z 07004KT 02/M02 A3016 RMK A01 T00221020  RH  074%=      5-min Rain = 0
KCR2 130825Z 07004KT 02/M02 A3016 RMK A01 T00221020  RH  073%=      5-min Rain = 0
KCR2 130826Z 08004KT 02/M02 A3016 RMK A01 T00221020  RH  074%=      5-min Rain = 0
KCR2 130827Z 08004KT 02/M02 A3016 RMK A01 T00221020  RH  074%=      5-min Rain = 0
KCR2 130828Z 08004KT 02/M02 A3016 RMK A01 T00221020  RH  073%=      5-min Rain = 0
KCR2 130829Z 08004KT 02/M02 A3016 RMK A01 T00221020  RH  074%=      5-min Rain = 0
KCR2 130830Z 08004KT 02/M02 A3016 RMK A01 T00221021  RH  074%=      5-min Rain = 0
KCR2 130831Z 09004KT 02/M02 A3016 RMK A01 T00211021  RH  074%=      5-min Rain = 0
KCR2 130832Z 08003KT 02/M02 A3016 RMK A01 T00211021  RH  074%=      5-min Rain = 0
KCR2 130833Z 08004KT 02/M02 A3016 RMK A01 T00211020  RH  074%=      5-min Rain = 0
KCR2 130834Z 08004KT 02/M02 A3016 RMK A01 T00201021  RH  074%=      5-min Rain = 0
KCR2 130835Z 08004KT 02/M02 A3016 RMK A01 T00191021  RH  075%=      5-min Rain = 0
KCR2 130836Z 09004KT 02/M02 A3016 RMK A01 T00191022  RH  075%=      5-min Rain = 0
KCR2 130837Z 09004KT 02/M02 A3016 RMK A01 T00181021  RH  075%=      5-min Rain = 0
KCR2 130838Z 09005KT 02/M02 A3016 RMK A01 T00171021  RH  076%=      5-min Rain = 0
KCR2 130839Z 09005KT 02/M02 A3016 RMK A01 T00171021  RH  076%=      5-min Rain = 0
KCR2 130840Z 09006KT 02/M02 A3016 RMK A01 T00171020  RH  076%=      5-min Rain = 0
KCR2 130841Z 09006KT 02/M02 A3016 RMK A01 T00171020  RH  076%=      5-min Rain = 0
KCR2 130842Z 09006KT 02/M02 A3016 RMK A01 T00151020  RH  077%=      5-min Rain = 0
KCR2 130843Z 09006KT 01/M02 A3016 RMK A01 T00141020  RH  078%=      5-min Rain = 0
KCR2 130844Z 09006KT 01/M02 A3016 RMK A01 T00141019  RH  078%=      5-min Rain = 0
KCR2 130845Z 09006KT 01/M02 A3016 RMK A01 T00141019  RH  079%=      5-min Rain = 0
KCR2 130846Z 09005KT 01/M02 A3016 RMK A01 T00141019  RH  079%=      5-min Rain = 0
KCR2 130847Z 09005KT 01/M02 A3016 RMK A01 T00141019  RH  079%=      5-min Rain = 0
KCR2 130848Z 10005KT 01/M02 A3016 RMK A01 T00141019  RH  079%=      5-min Rain = 0
KCR2 130849Z 10005KT 01/M02 A3016 RMK A01 T00141019  RH  079%=      5-min Rain = 0
KCR2 130850Z 09005KT 01/M02 A3016 RMK A01 T00131019  RH  079%=      5-min Rain = 0
KCR2 130851Z 09005KT 01/M02 A3016 RMK A01 T00131019  RH  079%=      5-min Rain = 0
KCR2 130852Z 09005KT 01/M02 A3016 RMK A01 T00131019  RH  079%=      5-min Rain = 0
KCR2 130853Z 09006KT 01/M02 A3016 RMK A01 T00121019  RH  080%=      5-min Rain = 0
KCR2 130854Z 09006KT 01/M02 A3016 RMK A01 T00121019  RH  080%=      5-min Rain = 0
KCR2 130855Z 09006KT 01/M02 A3016 RMK A01 T00111019  RH  081%=      5-min Rain = 0
KCR2 130856Z 09006KT 01/M02 A3016 RMK A01 T00111018  RH  081%=      5-min Rain = 0
KCR2 130857Z 09006KT 01/M02 A3016 RMK A01 T00111018  RH  081%=      5-min Rain = 0
KCR2 130858Z 09006KT 01/M02 A3016 RMK A01 T00111018  RH  081%=      5-min Rain = 0
KCR2 130859Z 10005KT 01/M02 A3016 RMK A01 T00111018  RH  081%=      5-min Rain = 0
KCR2 130900Z 10005KT 01/M02 A3016 RMK A01 T00111018  RH  081%=      5-min Rain = 0
KCR2 130901Z 10005KT 01/M02 A3016 RMK A01 T00111019  RH  081%=      5-min Rain = 0
KCR2 130902Z 10005KT 01/M02 A3016 RMK A01 T00111019  RH  081%=      5-min Rain = 0
KCR2 130903Z 11005KT 01/M02 A3016 RMK A01 T00111019  RH  081%=      5-min Rain = 0
KCR2 130904Z 11005KT 01/M02 A3016 RMK A01 T00111019  RH  080%=      5-min Rain = 0
KCR2 130905Z 11005KT 01/M02 A3016 RMK A01 T00101020  RH  080%=      5-min Rain = 0
KCR2 130906Z 11005KT 01/M02 A3016 RMK A01 T00101019  RH  081%=      5-min Rain = 0
KCR2 130907Z 11005KT 01/M02 A3016 RMK A01 T00111018  RH  081%=      5-min Rain = 0
KCR2 130908Z 11006KT 01/M02 A3016 RMK A01 T00101018  RH  081%=      5-min Rain = 0
KCR2 130909Z 11006KT 01/M02 A3016 RMK A01 T00111018  RH  081%=      5-min Rain = 0
KCR2 130910Z 10006KT 01/M02 A3016 RMK A01 T00101018  RH  081%=      5-min Rain = 0
KCR2 130911Z 10006KT 01/M02 A3016 RMK A01 T00111018  RH  081%=      5-min Rain = 0
KCR2 130912Z 10005KT 01/M02 A3016 RMK A01 T00111018  RH  081%=      5-min Rain = 0
KCR2 130913Z 10005KT 01/M02 A3016 RMK A01 T00111018  RH  081%=      5-min Rain = 0
KCR2 130914Z 10005KT 01/M02 A3016 RMK A01 T00111017  RH  082%=      5-min Rain = 0
KCR2 130915Z 10005KT 01/M02 A3016 RMK A01 T00111017  RH  082%=      5-min Rain = 0
KCR2 130916Z 11005KT 01/M02 A3016 RMK A01 T00101017  RH  082%=      5-min Rain = 0
KCR2 130917Z 11005KT 01/M02 A3016 RMK A01 T00101017  RH  082%=      5-min Rain = 0
KCR2 130918Z 10005KT 01/M02 A3016 RMK A01 T00101017  RH  082%=      5-min Rain = 0
KCR2 130919Z 10005KT 01/M02 A3016 RMK A01 T00101017  RH  082%=      5-min Rain = 0
KCR2 130920Z 10005KT 01/M02 A3016 RMK A01 T00101018  RH  082%=      5-min Rain = 0
KCR2 130921Z 10006KT 01/M02 A3016 RMK A01 T00101018  RH  082%=      5-min Rain = 0
KCR2 130922Z 10006KT 01/M02 A3016 RMK A01 T00111017  RH  081%=      5-min Rain = 0
KCR2 130923Z 10006KT 01/M02 A3016 RMK A01 T00101018  RH  081%=      5-min Rain = 0
KCR2 130924Z 10007KT 01/M02 A3016 RMK A01 T00111018  RH  081%=      5-min Rain = 0
KCR2 130925Z 10007KT 01/M02 A3016 RMK A01 T00111017  RH  081%=      5-min Rain = 0
KCR2 130926Z 10007KT 01/M02 A3016 RMK A01 T00111017  RH  081%=      5-min Rain = 0
KCR2 130927Z 10007KT 01/M02 A3016 RMK A01 T00111017  RH  081%=      5-min Rain = 0
KCR2 130928Z 10006KT 01/M02 A3016 RMK A01 T00101018  RH  082%=      5-min Rain = 0
KCR2 130929Z 10006KT 01/M02 A3016 RMK A01 T00101018  RH  082%=      5-min Rain = 0
KCR2 130930Z 10006KT 01/M02 A3016 RMK A01 T00101018  RH  082%=      5-min Rain = 0
KCR2 130931Z 10006KT 01/M02 A3016 RMK A01 T00091017  RH  082%=      5-min Rain = 0
KCR2 130932Z 10006KT 01/M02 A3016 RMK A01 T00091017  RH  083%=      5-min Rain = 0
KCR2 130933Z 10005KT 01/M02 A3016 RMK A01 T00091017  RH  083%=      5-min Rain = 0
KCR2 130934Z 10005KT 01/M02 A3016 RMK A01 T00091018  RH  083%=      5-min Rain = 0
KCR2 130935Z 10004KT 01/M02 A3016 RMK A01 T00091017  RH  083%=      5-min Rain = 0
KCR2 130936Z 11004KT 01/M02 A3016 RMK A01 T00081018  RH  083%=      5-min Rain = 0
KCR2 130937Z 11004KT 01/M02 A3016 RMK A01 T00081018  RH  083%=      5-min Rain = 0
KCR2 130938Z 11005KT 01/M02 A3016 RMK A01 T00071018  RH  083%=      5-min Rain = 0
KCR2 130939Z 11005KT 01/M02 A3016 RMK A01 T00071018  RH  083%=      5-min Rain = 0
KCR2 130940Z 11004KT 01/M02 A3016 RMK A01 T00071019  RH  083%=      5-min Rain = 0
KCR2 130941Z 10004KT 01/M02 A3016 RMK A01 T00071019  RH  083%=      5-min Rain = 0
KCR2 130942Z 10004KT 01/M02 A3016 RMK A01 T00071019  RH  083%=      5-min Rain = 0
KCR2 130943Z 10004KT 01/M02 A3016 RMK A01 T00071019  RH  083%=      5-min Rain = 0
KCR2 130944Z 10004KT 01/M02 A3016 RMK A01 T00061019  RH  083%=      5-min Rain = 0
KCR2 130945Z 10004KT 01/M02 A3016 RMK A01 T00061018  RH  083%=      5-min Rain = 0
KCR2 130946Z 09004KT 01/M02 A3016 RMK A01 T00071018  RH  083%=      5-min Rain = 0
KCR2 130947Z 09004KT 01/M02 A3016 RMK A01 T00061019  RH  083%=      5-min Rain = 0
KCR2 130948Z 09004KT 01/M02 A3016 RMK A01 T00061019  RH  083%=      5-min Rain = 0
KCR2 130949Z 08003KT 01/M02 A3016 RMK A01 T00061019  RH  083%=      5-min Rain = 0
KCR2 130950Z 08003KT 01/M02 A3016 RMK A01 T00061019  RH  083%=      5-min Rain = 0
KCR2 130951Z 09003KT 01/M02 A3016 RMK A01 T00061019  RH  083%=      5-min Rain = 0
KCR2 130952Z 09003KT 01/M02 A3016 RMK A01 T00061019  RH  083%=      5-min Rain = 0
KCR2 130953Z 10002KT 01/M02 A3016 RMK A01 T00061020  RH  083%=      5-min Rain = 0
KCR2 130954Z 11003KT 01/M02 A3016 RMK A01 T00061019  RH  083%=      5-min Rain = 0
KCR2 130955Z 12003KT 01/M02 A3016 RMK A01 T00061019  RH  084%=      5-min Rain = 0
KCR2 130956Z 12003KT 01/M02 A3016 RMK A01 T00061019  RH  083%=      5-min Rain = 0
KCR2 130957Z 11003KT 01/M02 A3016 RMK A01 T00071019  RH  083%=      5-min Rain = 0
KCR2 130958Z 10003KT 01/M02 A3016 RMK A01 T00061020  RH  083%=      5-min Rain = 0
KCR2 130959Z 09003KT 01/M02 A3016 RMK A01 T00061021  RH  082%=      5-min Rain = 0
KCR2 131000Z 08003KT 01/M02 A3016 RMK A01 T00061021  RH  083%=      5-min Rain = 0
KCR2 131001Z 08003KT 01/M02 A3016 RMK A01 T00061021  RH  083%=      5-min Rain = 0
KCR2 131002Z 09002KT 01/M02 A3016 RMK A01 T00061021  RH  083%=      5-min Rain = 0
KCR2 131003Z 09002KT 01/M02 A3016 RMK A01 T00061021  RH  082%=      5-min Rain = 0
KCR2 131004Z 08003KT 01/M02 A3016 RMK A01 T00061020  RH  082%=      5-min Rain = 0
KCR2 131005Z 08003KT 01/M02 A3016 RMK A01 T00061021  RH  082%=      5-min Rain = 0
KCR2 131006Z 08003KT 01/M02 A3016 RMK A01 T00061021  RH  082%=      5-min Rain = 0
KCR2 131007Z 08003KT 01/M02 A3016 RMK A01 T00051022  RH  082%=      5-min Rain = 0
KCR2 131008Z 08003KT 01/M02 A3016 RMK A01 T00051022  RH  083%=      5-min Rain = 0
KCR2 131009Z 08003KT 01/M02 A3016 RMK A01 T00051021  RH  083%=      5-min Rain = 0
KCR2 131010Z 09003KT 01/M02 A3016 RMK A01 T00051021  RH  083%=      5-min Rain = 0
KCR2 131011Z 09003KT 01/M02 A3016 RMK A01 T00051021  RH  083%=      5-min Rain = 0
KCR2 131012Z 10002KT 01/M02 A3016 RMK A01 T00051021  RH  083%=      5-min Rain = 0
KCR2 131013Z 10002KT 01/M02 A3016 RMK A01 T00051021  RH  083%=      5-min Rain = 0
KCR2 131014Z 10002KT 00/M02 A3017 RMK A01 T00041022  RH  083%=      5-min Rain = 0
KCR2 131015Z 10001KT 00/M02 A3017 RMK A01 T00031023  RH  083%=      5-min Rain = 0
KCR2 131016Z 10001KT 00/03 A3017 RMK A01 T00000-25  RH  083%=      5-min Rain = 0
KCR2 131017Z 00000KT M00/M03 A3017 RMK A01 T10031027  RH  084%=      5-min Rain = 0
KCR2 131018Z 25001KT M01/M03 A3017 RMK A01 T10051026  RH  085%=      5-min Rain = 0
KCR2 131019Z 26001KT M01/M03 A3017 RMK A01 T10051025  RH  087%=      5-min Rain = 0
KCR2 131020Z 28002KT M01/M02 A3017 RMK A01 T10061024  RH  088%=      5-min Rain = 0
KCR2 131021Z 27002KT M01/M02 A3017 RMK A01 T10061023  RH  088%=      5-min Rain = 0
KCR2 131022Z 28001KT M01/M02 A3017 RMK A01 T10051022  RH  088%=      5-min Rain = 0
KCR2 131023Z 29001KT M00/M02 A3017 RMK A01 T10041021  RH  088%=      5-min Rain = 0
KCR2 131024Z 31001KT M00/M02 A3017 RMK A01 T10041021  RH  088%=      5-min Rain = 0
KCR2 131025Z 31001KT M00/M02 A3017 RMK A01 T10041021  RH  088%=      5-min Rain = 0
KCR2 131026Z 31001KT M00/M02 A3017 RMK A01 T10041021  RH  088%=      5-min Rain = 0
KCR2 131027Z 33002KT M01/M02 A3017 RMK A01 T10051024  RH  088%=      5-min Rain = 0
KCR2 131028Z 33002KT M01/M03 A3017 RMK A01 T10071025  RH  087%=      5-min Rain = 0
KCR2 131029Z 33002KT M01/M03 A3017 RMK A01 T10081027  RH  087%=      5-min Rain = 0
KCR2 131030Z 32002KT M01/M03 A3017 RMK A01 T10091029  RH  087%=      5-min Rain = 0
KCR2 131031Z 31003KT M01/M03 A3017 RMK A01 T10111029  RH  087%=      5-min Rain = 0
KCR2 131032Z 31003KT M01/M03 A3017 RMK A01 T10121030  RH  087%=      5-min Rain = 0
KCR2 131033Z 31003KT M01/M03 A3017 RMK A01 T10121030  RH  088%=      5-min Rain = 0
KCR2 131034Z 31003KT M01/M03 A3017 RMK A01 T10131030  RH  088%=      5-min Rain = 0
KCR2 131035Z 30002KT M01/M03 A3017 RMK A01 T10131030  RH  088%=      5-min Rain = 0
KCR2 131036Z 30003KT M01/M03 A3017 RMK A01 T10131030  RH  089%=      5-min Rain = 0
KCR2 131037Z 31003KT M01/M03 A3017 RMK A01 T10131030  RH  089%=      5-min Rain = 0
KCR2 131038Z 31004KT M01/M03 A3017 RMK A01 T10131030  RH  089%=      5-min Rain = 0
KCR2 131039Z 31004KT M01/M03 A3017 RMK A01 T10131029  RH  089%=      5-min Rain = 0
KCR2 131040Z 31004KT M01/M03 A3017 RMK A01 T10141030  RH  089%=      5-min Rain = 0
KCR2 131041Z 31004KT M01/M03 A3017 RMK A01 T10141031  RH  089%=      5-min Rain = 0
KCR2 131042Z 31004KT M02/M03 A3017 RMK A01 T10151031  RH  089%=      5-min Rain = 0
KCR2 131043Z 31003KT M02/M03 A3017 RMK A01 T10151031  RH  089%=      5-min Rain = 0
KCR2 131044Z 31003KT M02/M03 A3017 RMK A01 T10161032  RH  089%=      5-min Rain = 0
KCR2 131045Z 31003KT M02/M03 A3017 RMK A01 T10161031  RH  089%=      5-min Rain = 0
KCR2 131046Z 31003KT M02/M03 A3017 RMK A01 T10161030  RH  090%=      5-min Rain = 0
KCR2 131047Z 31003KT M02/M03 A3017 RMK A01 T10151030  RH  090%=      5-min Rain = 0
KCR2 131048Z 30003KT M02/M03 A3017 RMK A01 T10151029  RH  090%=      5-min Rain = 0
KCR2 131049Z 30003KT M02/M03 A3017 RMK A01 T10151029  RH  090%=      5-min Rain = 0
KCR2 131050Z 31003KT M02/M03 A3017 RMK A01 T10151029  RH  090%=      5-min Rain = 0
KCR2 131051Z 30003KT M01/M03 A3018 RMK A01 T10141028  RH  090%=      5-min Rain = 0
KCR2 131052Z 30003KT M01/M03 A3018 RMK A01 T10141028  RH  090%=      5-min Rain = 0
KCR2 131053Z 31004KT M01/M03 A3018 RMK A01 T10141028  RH  090%=      5-min Rain = 0
KCR2 131054Z 31004KT M01/M03 A3018 RMK A01 T10141028  RH  090%=      5-min Rain = 0
KCR2 131055Z 31004KT M01/M03 A3018 RMK A01 T10141028  RH  090%=      5-min Rain = 0
KCR2 131056Z 31004KT M02/M03 A3018 RMK A01 T10151030  RH  089%=      5-min Rain = 0
KCR2 131057Z 31003KT M02/M03 A3018 RMK A01 T10151030  RH  089%=      5-min Rain = 0
KCR2 131058Z 31003KT M02/M03 A3018 RMK A01 T10151031  RH  089%=      5-min Rain = 0
KCR2 131059Z 31003KT M02/M03 A3018 RMK A01 T10161031  RH  090%=      5-min Rain = 0
KCR2 131100Z 31003KT M02/M03 A3018 RMK A01 T10161031  RH  090%=      5-min Rain = 0
KCR2 131101Z 31003KT M02/M03 A3018 RMK A01 T10161030  RH  090%=      5-min Rain = 0
KCR2 131102Z 32003KT M02/M03 A3018 RMK A01 T10151029  RH  090%=      5-min Rain = 0
KCR2 131103Z 32003KT M02/M03 A3018 RMK A01 T10151029  RH  090%=      5-min Rain = 0
KCR2 131104Z 32002KT M02/M03 A3018 RMK A01 T10151028  RH  090%=      5-min Rain = 0
KCR2 131105Z 32003KT M02/M03 A3018 RMK A01 T10151028  RH  090%=      5-min Rain = 0
KCR2 131106Z 33002KT M01/M03 A3018 RMK A01 T10141028  RH  090%=      5-min Rain = 0
KCR2 131107Z 33002KT M02/M03 A3018 RMK A01 T10151028  RH  090%=      5-min Rain = 0
KCR2 131108Z 33003KT M02/M03 A3018 RMK A01 T10151029  RH  090%=      5-min Rain = 0
KCR2 131109Z 32003KT M02/M03 A3018 RMK A01 T10151029  RH  091%=      5-min Rain = 0
KCR2 131110Z 32002KT M02/M03 A3018 RMK A01 T10151028  RH  091%=      5-min Rain = 0
KCR2 131111Z 32002KT M02/M03 A3018 RMK A01 T10151029  RH  091%=      5-min Rain = 0
KCR2 131112Z 32001KT M02/M03 A3018 RMK A01 T10161029  RH  091%=      5-min Rain = 0
KCR2 131113Z 34002KT M02/M03 A3018 RMK A01 T10161030  RH  090%=      5-min Rain = 0
KCR2 131114Z 33002KT M02/M03 A3018 RMK A01 T10161030  RH  090%=      5-min Rain = 0
KCR2 131115Z 34002KT M02/M03 A3018 RMK A01 T10161030  RH  090%=      5-min Rain = 0
KCR2 131116Z 35001KT M02/M03 A3018 RMK A01 T10171030  RH  091%=      5-min Rain = 0
KCR2 131117Z 35002KT M02/M03 A3018 RMK A01 T10161029  RH  091%=      5-min Rain = 0
KCR2 131118Z 34002KT M02/M03 A3018 RMK A01 T10161029  RH  091%=      5-min Rain = 0
KCR2 131119Z 35002KT M02/M03 A3018 RMK A01 T10161029  RH  091%=      5-min Rain = 0
KCR2 131120Z 01001KT M02/M03 A3018 RMK A01 T10161029  RH  091%=      5-min Rain = 0
KCR2 131121Z 36002KT M02/M03 A3018 RMK A01 T10161029  RH  091%=      5-min Rain = 0
KCR2 131122Z 35002KT M02/M03 A3018 RMK A01 T10161029  RH  091%=      5-min Rain = 0
KCR2 131123Z 35002KT M02/M03 A3018 RMK A01 T10171029  RH  091%=      5-min Rain = 0
KCR2 131124Z 35002KT M02/M03 A3018 RMK A01 T10171030  RH  091%=      5-min Rain = 0
KCR2 131125Z 36002KT M02/M03 A3019 RMK A01 T10171030  RH  091%=      5-min Rain = 0
KCR2 131126Z 36002KT M02/M03 A3019 RMK A01 T10171031  RH  091%=      5-min Rain = 0
KCR2 131127Z 00001KT M02/M03 A3019 RMK A01 T10171030  RH  091%=      5-min Rain = 0
KCR2 131128Z 00001KT M02/M03 A3019 RMK A01 T10171030  RH  091%=      5-min Rain = 0
KCR2 131129Z 01001KT M02/M03 A3019 RMK A01 T10171030  RH  091%=      5-min Rain = 0
KCR2 131130Z 00002KT M02/M03 A3019 RMK A01 T10181031  RH  091%=      5-min Rain = 0
KCR2 131131Z 00002KT M02/M03 A3019 RMK A01 T10181031  RH  091%=      5-min Rain = 0
KCR2 131132Z 01002KT M02/M03 A3019 RMK A01 T10181031  RH  091%=      5-min Rain = 0
KCR2 131133Z 01002KT M02/M03 A3019 RMK A01 T10181031  RH  091%=      5-min Rain = 0
KCR2 131134Z 00003KT M02/M03 A3019 RMK A01 T10181031  RH  091%=      5-min Rain = 0
KCR2 131135Z 01003KT M02/M03 A3019 RMK A01 T10171030  RH  091%=      5-min Rain = 0
KCR2 131136Z 01002KT M02/M03 A3019 RMK A01 T10171030  RH  091%=      5-min Rain = 0
KCR2 131137Z 01002KT M02/M03 A3019 RMK A01 T10171031  RH  091%=      5-min Rain = 0
KCR2 131138Z 02002KT M02/M03 A3019 RMK A01 T10171031  RH  091%=      5-min Rain = 0
KCR2 131139Z 02002KT M02/M03 A3019 RMK A01 T10171031  RH  091%=      5-min Rain = 0
KCR2 131140Z 03002KT M02/M03 A3019 RMK A01 T10171030  RH  091%=      5-min Rain = 0
KCR2 131141Z 03002KT M02/M03 A3019 RMK A01 T10171030  RH  091%=      5-min Rain = 0
KCR2 131142Z 04001KT M02/M03 A3019 RMK A01 T10171030  RH  091%=      5-min Rain = 0
KCR2 131143Z 05002KT M02/M03 A3019 RMK A01 T10171030  RH  091%=      5-min Rain = 0
KCR2 131144Z 04002KT M02/M03 A3019 RMK A01 T10171031  RH  091%=      5-min Rain = 0
KCR2 131145Z 04001KT M02/M03 A3019 RMK A01 T10171031  RH  091%=      5-min Rain = 0
KCR2 131146Z 03002KT M02/M03 A3019 RMK A01 T10171031  RH  091%=      5-min Rain = 0
KCR2 131147Z 04001KT M02/M03 A3019 RMK A01 T10171030  RH  091%=      5-min Rain = 0
KCR2 131148Z 04002KT M02/M03 A3019 RMK A01 T10171030  RH  091%=      5-min Rain = 0
KCR2 131149Z 05001KT M02/M03 A3019 RMK A01 T10171029  RH  091%=      5-min Rain = 0
KCR2 131150Z 06001KT M02/M03 A3019 RMK A01 T10161028  RH  092%=      5-min Rain = 0
KCR2 131151Z 07001KT M02/M03 A3019 RMK A01 T10161028  RH  092%=      5-min Rain = 0
KCR2 131152Z 05001KT M02/M03 A3019 RMK A01 T10151027  RH  092%=      5-min Rain = 0
KCR2 131153Z 05001KT M02/M03 A3019 RMK A01 T10151027  RH  092%=      5-min Rain = 0
KCR2 131154Z 05002KT M02/M03 A3019 RMK A01 T10151027  RH  092%=      5-min Rain = 0
KCR2 131155Z 05002KT M02/M03 A3019 RMK A01 T10151027  RH  091%=      5-min Rain = 0
KCR2 131156Z 05002KT M02/M03 A3019 RMK A01 T10151027  RH  091%=      5-min Rain = 0
KCR2 131157Z 05002KT M02/M03 A3019 RMK A01 T10151027  RH  091%=      5-min Rain = 0
KCR2 131158Z 05002KT M01/M03 A3019 RMK A01 T10141027  RH  091%=      5-min Rain = 0
KCR2 131159Z 05002KT M01/M03 A3019 RMK A01 T10141027  RH  091%=      5-min Rain = 0
KCR2 131200Z 04002KT M01/M03 A3019 RMK A01 T10141026  RH  091%=      5-min Rain = 0
KCR2 131201Z 04002KT M01/M03 A3019 RMK A01 T10141026  RH  091%=      5-min Rain = 0
KCR2 131202Z 04002KT M01/M03 A3019 RMK A01 T10131026  RH  091%=      5-min Rain = 0
KCR2 131203Z 04003KT M01/M03 A3019 RMK A01 T10131026  RH  091%=      5-min Rain = 0
KCR2 131204Z 04003KT M01/M03 A3019 RMK A01 T10121026  RH  090%=      5-min Rain = 0
KCR2 131205Z 04002KT M01/M03 A3019 RMK A01 T10121027  RH  090%=      5-min Rain = 0
KCR2 131206Z 05002KT M01/M03 A3019 RMK A01 T10121027  RH  090%=      5-min Rain = 0
KCR2 131207Z 05002KT M01/M03 A3019 RMK A01 T10121028  RH  089%=      5-min Rain = 0
KCR2 131208Z 06002KT M01/M03 A3019 RMK A01 T10131028  RH  089%=      5-min Rain = 0
KCR2 131209Z 07002KT M01/M03 A3019 RMK A01 T10131029  RH  089%=      5-min Rain = 0
KCR2 131210Z 07002KT M01/M03 A302 RMK A01 T10131029  RH  089%=      5-min Rain = 0
KCR2 131211Z 07002KT M01/M03 A302 RMK A01 T10131029  RH  089%=      5-min Rain = 0
KCR2 131212Z 07002KT M01/M03 A302 RMK A01 T10141030  RH  089%=      5-min Rain = 0
KCR2 131213Z 08002KT M01/M03 A302 RMK A01 T10141030  RH  089%=      5-min Rain = 0
KCR2 131214Z 08002KT M01/M03 A302 RMK A01 T10141030  RH  089%=      5-min Rain = 0
KCR2 131215Z 08002KT M01/M03 A302 RMK A01 T10141030  RH  089%=      5-min Rain = 0
KCR2 131216Z 07002KT M02/M03 A302 RMK A01 T10151030  RH  089%=      5-min Rain = 0
KCR2 131217Z 06002KT M02/M03 A302 RMK A01 T10151030  RH  090%=      5-min Rain = 0
KCR2 131218Z 05002KT M02/M03 A302 RMK A01 T10151029  RH  090%=      5-min Rain = 0
KCR2 131219Z 05002KT M01/M03 A302 RMK A01 T10141028  RH  090%=      5-min Rain = 0
KCR2 131220Z 05002KT M01/M03 A302 RMK A01 T10141028  RH  090%=      5-min Rain = 0
KCR2 131221Z 05002KT M01/M03 A302 RMK A01 T10141027  RH  091%=      5-min Rain = 0
KCR2 131222Z 05002KT M01/M03 A302 RMK A01 T10141028  RH  091%=      5-min Rain = 0
KCR2 131223Z 06002KT M01/M03 A302 RMK A01 T10141028  RH  091%=      5-min Rain = 0
KCR2 131224Z 07002KT M02/M03 A302 RMK A01 T10151028  RH  091%=      5-min Rain = 0
KCR2 131225Z 08002KT M02/M03 A302 RMK A01 T10151028  RH  091%=      5-min Rain = 0
KCR2 131226Z 08002KT M02/M03 A302 RMK A01 T10151028  RH  091%=      5-min Rain = 0
KCR2 131227Z 08002KT M02/M03 A302 RMK A01 T10151028  RH  091%=      5-min Rain = 0
KCR2 131228Z 08002KT M02/M03 A302 RMK A01 T10151028  RH  091%=      5-min Rain = 0
KCR2 131229Z 07002KT M02/M03 A302 RMK A01 T10151027  RH  091%=      5-min Rain = 0
KCR2 131230Z 07002KT M02/M03 A302 RMK A01 T10151027  RH  091%=      5-min Rain = 0
KCR2 131231Z 07002KT M02/M03 A302 RMK A01 T10151027  RH  092%=      5-min Rain = 0
KCR2 131232Z 07002KT M02/M03 A302 RMK A01 T10151027  RH  092%=      5-min Rain = 0
KCR2 131233Z 08002KT M02/M03 A302 RMK A01 T10151026  RH  092%=      5-min Rain = 0
KCR2 131234Z 10002KT M02/M03 A302 RMK A01 T10151026  RH  092%=      5-min Rain = 0
KCR2 131235Z 10003KT M02/M03 A302 RMK A01 T10151026  RH  092%=      5-min Rain = 0
KCR2 131236Z 09003KT M02/M03 A302 RMK A01 T10151027  RH  092%=      5-min Rain = 0
KCR2 131237Z 09003KT M02/M03 A302 RMK A01 T10151027  RH  091%=      5-min Rain = 0
KCR2 131238Z 08003KT M02/M03 A302 RMK A01 T10151028  RH  091%=      5-min Rain = 0
KCR2 131239Z 08003KT M02/M03 A302 RMK A01 T10151028  RH  091%=      5-min Rain = 0
KCR2 131240Z 08002KT M02/M03 A302 RMK A01 T10151028  RH  091%=      5-min Rain = 0
KCR2 131241Z 08002KT M01/M03 A302 RMK A01 T10141027  RH  091%=      5-min Rain = 0
KCR2 131242Z 08002KT M02/M03 A302 RMK A01 T10151028  RH  091%=      5-min Rain = 0
KCR2 131243Z 09002KT M01/M03 A302 RMK A01 T10141028  RH  091%=      5-min Rain = 0
KCR2 131244Z 09002KT M02/M03 A302 RMK A01 T10151028  RH  091%=      5-min Rain = 0
KCR2 131245Z 09002KT M02/M03 A302 RMK A01 T10151028  RH  091%=      5-min Rain = 0
KCR2 131246Z 08002KT M02/M03 A302 RMK A01 T10151028  RH  091%=      5-min Rain = 0
KCR2 131247Z 07002KT M02/M03 A302 RMK A01 T10161029  RH  091%=      5-min Rain = 0
KCR2 131248Z 07002KT M02/M03 A3021 RMK A01 T10161028  RH  091%=      5-min Rain = 0
KCR2 131249Z 06002KT M02/M03 A3021 RMK A01 T10161028  RH  091%=      5-min Rain = 0
KCR2 131250Z 06003KT M02/M03 A3021 RMK A01 T10161029  RH  091%=      5-min Rain = 0
KCR2 131251Z 05002KT M02/M03 A3021 RMK A01 T10161029  RH  091%=      5-min Rain = 0
KCR2 131252Z 06002KT M02/M03 A3021 RMK A01 T10171029  RH  091%=      5-min Rain = 0
KCR2 131253Z 06002KT M02/M03 A3021 RMK A01 T10171029  RH  091%=      5-min Rain = 0
KCR2 131254Z 07002KT M02/M03 A3021 RMK A01 T10171029  RH  091%=      5-min Rain = 0
KCR2 131255Z 07002KT M02/M03 A3021 RMK A01 T10171029  RH  091%=      5-min Rain = 0
KCR2 131256Z 07002KT M02/M03 A3021 RMK A01 T10171029  RH  091%=      5-min Rain = 0
KCR2 131257Z 07002KT M02/M03 A3021 RMK A01 T10171029  RH  091%=      5-min Rain = 0
KCR2 131258Z 07002KT M02/M03 A3021 RMK A01 T10171030  RH  091%=      5-min Rain = 0
KCR2 131259Z 07002KT M02/M03 A3021 RMK A01 T10171029  RH  091%=      5-min Rain = 0
KCR2 131300Z 07002KT M02/M03 A3021 RMK A01 T10171029  RH  091%=      5-min Rain = 0
KCR2 131301Z 07002KT M02/M03 A3021 RMK A01 T10171030  RH  091%=      5-min Rain = 0
KCR2 131302Z 07002KT M02/M03 A3021 RMK A01 T10171029  RH  091%=      5-min Rain = 0
KCR2 131303Z 08002KT M02/M03 A3021 RMK A01 T10171029  RH  092%=      5-min Rain = 0
KCR2 131304Z 07002KT M02/M03 A3021 RMK A01 T10171029  RH  092%=      5-min Rain = 0
KCR2 131305Z 07002KT M02/M03 A3022 RMK A01 T10161028  RH  092%=      5-min Rain = 0
KCR2 131306Z 07002KT M02/M03 A3022 RMK A01 T10161028  RH  092%=      5-min Rain = 0
KCR2 131307Z 07001KT M02/M03 A3022 RMK A01 T10161028  RH  092%=      5-min Rain = 0
KCR2 131308Z 07001KT M02/M03 A3022 RMK A01 T10161028  RH  092%=      5-min Rain = 0
KCR2 131309Z 06001KT M02/M03 A3022 RMK A01 T10161028  RH  092%=      5-min Rain = 0
KCR2 131310Z 05002KT M02/M03 A3022 RMK A01 T10161027  RH  092%=      5-min Rain = 0
KCR2 131311Z 05002KT M02/M03 A3022 RMK A01 T10171029  RH  092%=      5-min Rain = 0
KCR2 131312Z 05002KT M02/M03 A3022 RMK A01 T10161028  RH  092%=      5-min Rain = 0
KCR2 131313Z 05002KT M02/M03 A3022 RMK A01 T10161028  RH  092%=      5-min Rain = 0
KCR2 131314Z 06002KT M02/M03 A3022 RMK A01 T10161028  RH  092%=      5-min Rain = 0
KCR2 131315Z 06002KT M02/M03 A3022 RMK A01 T10161027  RH  092%=      5-min Rain = 0
KCR2 131316Z 07002KT M02/M03 A3022 RMK A01 T10151027  RH  092%=      5-min Rain = 0
KCR2 131317Z 09002KT M02/M03 A3022 RMK A01 T10151028  RH  091%=      5-min Rain = 0
KCR2 131318Z 10002KT M02/M03 A3022 RMK A01 T10151028  RH  091%=      5-min Rain = 0
KCR2 131319Z 10002KT M02/M03 A3022 RMK A01 T10161028  RH  091%=      5-min Rain = 0
KCR2 131320Z 10002KT M02/M03 A3022 RMK A01 T10161028  RH  091%=      5-min Rain = 0
KCR2 131321Z 10002KT M02/M03 A3022 RMK A01 T10161028  RH  091%=      5-min Rain = 0
KCR2 131322Z 10001KT M02/M03 A3022 RMK A01 T10161028  RH  091%=      5-min Rain = 0
KCR2 131323Z 09001KT M02/M03 A3022 RMK A01 T10161028  RH  091%=      5-min Rain = 0
KCR2 131324Z 09001KT M02/M03 A3022 RMK A01 T10151028  RH  091%=      5-min Rain = 0
KCR2 131325Z 09001KT M02/M03 A3022 RMK A01 T10151027  RH  092%=      5-min Rain = 0
KCR2 131326Z 09001KT M02/M03 A3022 RMK A01 T10151027  RH  092%=      5-min Rain = 0
KCR2 131327Z 11001KT M02/M03 A3022 RMK A01 T10151027  RH  092%=      5-min Rain = 0
KCR2 131328Z 11001KT M02/M03 A3022 RMK A01 T10151027  RH  092%=      5-min Rain = 0
KCR2 131329Z 12001KT M02/M03 A3022 RMK A01 T10151027  RH  092%=      5-min Rain = 0
KCR2 131330Z 14001KT M02/M03 A3022 RMK A01 T10151026  RH  092%=      5-min Rain = 0
KCR2 131331Z 14001KT M02/M03 A3022 RMK A01 T10151026  RH  092%=      5-min Rain = 0
KCR2 131332Z 15001KT M01/M03 A3022 RMK A01 T10141026  RH  092%=      5-min Rain = 0
KCR2 131333Z 15001KT M01/M03 A3022 RMK A01 T10141026  RH  092%=      5-min Rain = 0
KCR2 131334Z 15001KT M02/M03 A3023 RMK A01 T10151026  RH  092%=      5-min Rain = 0
KCR2 131335Z 15001KT M02/M03 A3023 RMK A01 T10151027  RH  092%=      5-min Rain = 0
KCR2 131336Z 16001KT M02/M03 A3023 RMK A01 T10151026  RH  092%=      5-min Rain = 0
KCR2 131337Z 16001KT M02/M03 A3023 RMK A01 T10151027  RH  092%=      5-min Rain = 0
KCR2 131338Z 17001KT M02/M03 A3023 RMK A01 T10151026  RH  092%=      5-min Rain = 0
KCR2 131339Z 18001KT M01/M03 A3023 RMK A01 T10141026  RH  092%=      5-min Rain = 0
KCR2 131340Z 18000KT M01/M03 A3023 RMK A01 T10141025  RH  092%=      5-min Rain = 0
KCR2 131341Z 00000KT M01/M02 A3023 RMK A01 T10131024  RH  092%=      5-min Rain = 0
KCR2 131342Z 00000KT M01/M02 A3023 RMK A01 T10131024  RH  092%=      5-min Rain = 0
KCR2 131343Z 00000KT M01/M03 A3023 RMK A01 T10131025  RH  091%=      5-min Rain = 0
KCR2 131344Z 00000KT M01/M03 A3024 RMK A01 T10131026  RH  091%=      5-min Rain = 0
KCR2 131345Z 00000KT M02/M03 A3024 RMK A01 T10151027  RH  091%=      5-min Rain = 0
KCR2 131346Z 18000KT M02/M03 A3024 RMK A01 T10151028  RH  091%=      5-min Rain = 0
KCR2 131347Z 18000KT M02/M03 A3024 RMK A01 T10161029  RH  091%=      5-min Rain = 0
KCR2 131348Z 00000KT M02/M03 A3024 RMK A01 T10171031  RH  091%=      5-min Rain = 0
KCR2 131349Z 00000KT M02/M03 A3024 RMK A01 T10181031  RH  091%=      5-min Rain = 0
KCR2 131350Z 00000KT M02/M03 A3024 RMK A01 T10181031  RH  091%=      5-min Rain = 0
KCR2 131351Z 19000KT M02/M03 A3024 RMK A01 T10181031  RH  091%=      5-min Rain = 0
KCR2 131352Z 19001KT M02/M03 A3024 RMK A01 T10181031  RH  091%=      5-min Rain = 0
KCR2 131353Z 20001KT M02/M03 A3024 RMK A01 T10181030  RH  091%=      5-min Rain = 0
KCR2 131354Z 20001KT M02/M03 A3024 RMK A01 T10171029  RH  091%=      5-min Rain = 0
KCR2 131355Z 20002KT M02/M03 A3024 RMK A01 T10151026  RH  092%=      5-min Rain = 0
KCR2 131356Z 20001KT M01/M03 A3024 RMK A01 T10141026  RH  092%=      5-min Rain = 0
KCR2 131357Z 20001KT M01/M03 A3024 RMK A01 T10131025  RH  092%=      5-min Rain = 0
KCR2 131358Z 20001KT M01/M02 A3024 RMK A01 T10121023  RH  092%=      5-min Rain = 0
KCR2 131359Z 20000KT M01/M02 A3025 RMK A01 T10111022  RH  092%=      5-min Rain = 0
KCR2 131400Z 00000KT M01/M02 A3025 RMK A01 T10091021  RH  092%=      5-min Rain = 0
KCR2 131401Z 00000KT M01/M02 A3025 RMK A01 T10061018  RH  092%=      5-min Rain = 0
KCR2 131402Z 00000KT M01/M02 A3025 RMK A01 T10051016  RH  092%=      5-min Rain = 0
KCR2 131403Z 00000KT M00/M02 A3025 RMK A01 T10031015  RH  092%=      5-min Rain = 0
KCR2 131404Z 00000KT M00/M02 A3025 RMK A01 T10021015  RH  091%=      5-min Rain = 0
KCR2 131405Z 00000KT M00/M02 A3025 RMK A01 T10011015  RH  091%=      5-min Rain = 0
KCR2 131406Z 00000KT M00/M02 A3025 RMK A01 T10011016  RH  089%=      5-min Rain = 0
KCR2 131407Z 00000KT M00/M02 A3025 RMK A01 T10011018  RH  089%=      5-min Rain = 0
KCR2 131408Z 00000KT M00/M02 A3025 RMK A01 T10011018  RH  088%=      5-min Rain = 0
KCR2 131409Z 00000KT M00/M02 A3025 RMK A01 T10011018  RH  088%=      5-min Rain = 0
KCR2 131410Z 00000KT 00/M02 A3025 RMK A01 T00011016  RH  088%=      5-min Rain = 0
KCR2 131411Z 00000KT 00/M01 A3025 RMK A01 T00031014  RH  089%=      5-min Rain = 0
KCR2 131412Z 00000KT 00/M02 A3025 RMK A01 T00031015  RH  088%=      5-min Rain = 0
KCR2 131413Z 00000KT 00/M02 A3025 RMK A01 T00031018  RH  086%=      5-min Rain = 0
KCR2 131414Z 00000KT 00/M02 A3025 RMK A01 T00021019  RH  086%=      5-min Rain = 0
KCR2 131415Z 00000KT 00/M02 A3025 RMK A01 T00021019  RH  086%=      5-min Rain = 0
KCR2 131416Z 00000KT 00/M02 A3026 RMK A01 T00021019  RH  086%=      5-min Rain = 0
KCR2 131417Z 00000KT 00/M02 A3026 RMK A01 T00021019  RH  086%=      5-min Rain = 0
KCR2 131418Z 00000KT 00/M02 A3026 RMK A01 T00031017  RH  086%=      5-min Rain = 0
KCR2 131419Z 00000KT 00/M02 A3026 RMK A01 T00031018  RH  086%=      5-min Rain = 0
KCR2 131420Z 00000KT 00/M02 A3026 RMK A01 T00031018  RH  086%=      5-min Rain = 0
KCR2 131421Z 00000KT 00/M02 A3026 RMK A01 T00031018  RH  086%=      5-min Rain = 0
KCR2 131422Z 00000KT 00/M02 A3026 RMK A01 T00031017  RH  086%=      5-min Rain = 0
KCR2 131423Z 00000KT 00/M02 A3026 RMK A01 T00041016  RH  086%=      5-min Rain = 0
KCR2 131424Z 00000KT 00/M02 A3026 RMK A01 T00041016  RH  087%=      5-min Rain = 0
KCR2 131425Z 00000KT 01/M02 A3026 RMK A01 T00051015  RH  087%=      5-min Rain = 0
KCR2 131426Z 00000KT 01/M02 A3026 RMK A01 T00051015  RH  087%=      5-min Rain = 0
KCR2 131427Z 00000KT 01/M01 A3026 RMK A01 T00061014  RH  087%=      5-min Rain = 0
KCR2 131428Z 00000KT 01/M01 A3026 RMK A01 T00061014  RH  087%=      5-min Rain = 0
KCR2 131429Z 00000KT 01/M01 A3026 RMK A01 T00071013  RH  087%=      5-min Rain = 0
KCR2 131430Z 00000KT 01/M01 A3026 RMK A01 T00071012  RH  087%=      5-min Rain = 0
KCR2 131431Z 00000KT 01/M01 A3026 RMK A01 T00081012  RH  087%=      5-min Rain = 0
KCR2 131432Z 15000KT 01/M01 A3026 RMK A01 T00081011  RH  087%=      5-min Rain = 0
KCR2 131433Z 15000KT 01/M01 A3026 RMK A01 T00091009  RH  087%=      5-min Rain = 0
KCR2 131434Z 00000KT 01/M01 A3026 RMK A01 T00101008  RH  088%=      5-min Rain = 0
KCR2 131435Z 13001KT 01/M01 A3026 RMK A01 T00111007  RH  088%=      5-min Rain = 0
KCR2 131436Z 12001KT 01/M01 A3027 RMK A01 T00121006  RH  088%=      5-min Rain = 0
KCR2 131437Z 11001KT 01/M01 A3027 RMK A01 T00121006  RH  088%=      5-min Rain = 0
KCR2 131438Z 11000KT 01/M01 A3027 RMK A01 T00131005  RH  088%=      5-min Rain = 0
KCR2 131439Z 10001KT 01/M01 A3027 RMK A01 T00141005  RH  087%=      5-min Rain = 0
KCR2 131440Z 11001KT 02/M01 A3027 RMK A01 T00151005  RH  087%=      5-min Rain = 0
KCR2 131441Z 11001KT 02/M01 A3027 RMK A01 T00151006  RH  086%=      5-min Rain = 0
KCR2 131442Z 11002KT 02/M01 A3027 RMK A01 T00161007  RH  085%=      5-min Rain = 0
KCR2 131443Z 12001KT 02/M01 A3027 RMK A01 T00171008  RH  083%=      5-min Rain = 0
KCR2 131444Z 13001KT 02/M01 A3027 RMK A01 T00181011  RH  081%=      5-min Rain = 0
KCR2 131445Z 11001KT 02/M01 A3027 RMK A01 T00201010  RH  081%=      5-min Rain = 0
KCR2 131446Z 11002KT 02/M01 A3027 RMK A01 T00211009  RH  080%=      5-min Rain = 0
KCR2 131447Z 11003KT 02/M01 A3027 RMK A01 T00221010  RH  080%=      5-min Rain = 0
KCR2 131448Z 13003KT 02/M01 A3027 RMK A01 T00221009  RH  080%=      5-min Rain = 0
KCR2 131449Z 12003KT 02/M01 A3027 RMK A01 T00231009  RH  079%=      5-min Rain = 0
KCR2 131450Z 12003KT 02/M01 A3027 RMK A01 T00221013  RH  078%=      5-min Rain = 0
KCR2 131451Z 12003KT 02/M01 A3027 RMK A01 T00221012  RH  078%=      5-min Rain = 0
KCR2 131452Z 10003KT 02/M01 A3027 RMK A01 T00221013  RH  078%=      5-min Rain = 0
KCR2 131453Z 09003KT 02/M01 A3027 RMK A01 T00221013  RH  078%=      5-min Rain = 0
KCR2 131454Z 09003KT 02/M01 A3027 RMK A01 T00221012  RH  078%=      5-min Rain = 0
KCR2 131455Z 10003KT 02/M01 A3027 RMK A01 T00221011  RH  079%=      5-min Rain = 0
KCR2 131456Z 09004KT 02/M01 A3027 RMK A01 T00221010  RH  079%=      5-min Rain = 0
KCR2 131457Z 10005KT 02/M01 A3027 RMK A01 T00231013  RH  077%=      5-min Rain = 0
KCR2 131458Z 10004KT 02/M01 A3027 RMK A01 T00221014  RH  077%=      5-min Rain = 0
KCR2 131459Z 10005KT 02/M01 A3027 RMK A01 T00231013  RH  077%=      5-min Rain = 0
KCR2 131500Z 10004KT 02/M01 A3027 RMK A01 T00221013  RH  077%=      5-min Rain = 0
KCR2 131501Z 10004KT 02/M01 A3027 RMK A01 T00231012  RH  078%=      5-min Rain = 0
KCR2 131502Z 10004KT 02/M01 A3027 RMK A01 T00231013  RH  077%=      5-min Rain = 0
KCR2 131503Z 10003KT 02/M01 A3027 RMK A01 T00231013  RH  077%=      5-min Rain = 0
KCR2 131504Z 11003KT 02/M01 A3027 RMK A01 T00241010  RH  078%=      5-min Rain = 0
KCR2 131505Z 11003KT 03/M01 A3027 RMK A01 T00251009  RH  078%=      5-min Rain = 0
KCR2 131506Z 09004KT 03/M01 A3027 RMK A01 T00261011  RH  077%=      5-min Rain = 0
KCR2 131507Z 10004KT 03/M01 A3027 RMK A01 T00261012  RH  076%=      5-min Rain = 0
KCR2 131508Z 11003KT 03/M01 A3027 RMK A01 T00261011  RH  077%=      5-min Rain = 0
KCR2 131509Z 09004KT 03/M01 A3027 RMK A01 T00271007  RH  078%=      5-min Rain = 0
KCR2 131510Z 09005KT 03/M01 A3027 RMK A01 T00281008  RH  078%=      5-min Rain = 0
KCR2 131511Z 09004KT 03/M01 A3027 RMK A01 T00271009  RH  077%=      5-min Rain = 0
KCR2 131512Z 09004KT 03/M01 A3027 RMK A01 T00281007  RH  078%=      5-min Rain = 0
KCR2 131513Z 10005KT 03/M01 A3027 RMK A01 T00281007  RH  078%=      5-min Rain = 0
KCR2 131514Z 12005KT 03/M01 A3027 RMK A01 T00291007  RH  077%=      5-min Rain = 0
KCR2 131515Z 11005KT 03/M01 A3027 RMK A01 T00301006  RH  077%=      5-min Rain = 0
KCR2 131516Z 11006KT 03/M01 A3027 RMK A01 T00311007  RH  076%=      5-min Rain = 0
KCR2 131517Z 12006KT 03/M01 A3027 RMK A01 T00311009  RH  075%=      5-min Rain = 0
KCR2 131518Z 11006KT 03/M01 A3027 RMK A01 T00321007  RH  075%=      5-min Rain = 0
KCR2 131519Z 12006KT 03/M01 A3027 RMK A01 T00331008  RH  074%=      5-min Rain = 0
KCR2 131520Z 12006KT 03/M01 A3027 RMK A01 T00341007  RH  075%=      5-min Rain = 0
KCR2 131521Z 12006KT 04/M01 A3027 RMK A01 T00361006  RH  074%=      5-min Rain = 0
KCR2 131522Z 11006KT 04/M00 A3027 RMK A01 T00371003  RH  075%=      5-min Rain = 0
KCR2 131523Z 10007KT 04/M01 A3027 RMK A01 T00381006  RH  073%=      5-min Rain = 0
KCR2 131524Z 11008KT 04/M01 A3027 RMK A01 T00381009  RH  072%=      5-min Rain = 0
KCR2 131525Z 12007KT 04/M01 A3027 RMK A01 T00381007  RH  072%=      5-min Rain = 0
KCR2 131526Z 12008KT 04/M01 A3027 RMK A01 T00391006  RH  073%=      5-min Rain = 0
KCR2 131527Z 11008KT 04/M01 A3027 RMK A01 T00381009  RH  071%=      5-min Rain = 0
KCR2 131528Z 12008KT 04/M01 A3027 RMK A01 T00391008  RH  072%=      5-min Rain = 0
KCR2 131529Z 13008KT 04/M01 A3027 RMK A01 T00391007  RH  072%=      5-min Rain = 0
KCR2 131530Z 12008KT 04/M01 A3027 RMK A01 T00401007  RH  072%=      5-min Rain = 0
KCR2 131531Z 12008KT 04/M01 A3027 RMK A01 T00401008  RH  071%=      5-min Rain = 0
KCR2 131532Z 12008KT 04/M01 A3027 RMK A01 T00401009  RH  070%=      5-min Rain = 0
KCR2 131533Z 12008KT 04/M01 A3027 RMK A01 T00401006  RH  072%=      5-min Rain = 0
KCR2 131534Z 13010KT 04/M01 A3027 RMK A01 T00411005  RH  072%=      5-min Rain = 0
KCR2 131535Z 12010KT 04/M01 A3027 RMK A01 T00421008  RH  070%=      5-min Rain = 0
KCR2 131536Z 11008KT 04/M01 A3027 RMK A01 T00431005  RH  071%=      5-min Rain = 0
KCR2 131537Z 10008KT 05/00 A3027 RMK A01 T00450001  RH  073%=      5-min Rain = 0
KCR2 131538Z 11008KT 05/M00 A3027 RMK A01 T00461004  RH  070%=      5-min Rain = 0
KCR2 131539Z 11011KT 05/M01 A3027 RMK A01 T00451007  RH  069%=      5-min Rain = 0
KCR2 131540Z 11012KT 05/M01 A3027 RMK A01 T00451008  RH  069%=      5-min Rain = 0
KCR2 131541Z 10012KT 05/M01 A3027 RMK A01 T00451008  RH  069%=      5-min Rain = 0
KCR2 131542Z 10011KT 05/M01 A3027 RMK A01 T00451008  RH  069%=      5-min Rain = 0
KCR2 131543Z 10011KT 05/M01 A3027 RMK A01 T00461006  RH  069%=      5-min Rain = 0
KCR2 131544Z 11009KT 05/M01 A3027 RMK A01 T00461008  RH  068%=      5-min Rain = 0
KCR2 131545Z 11011KT 05/M01 A3027 RMK A01 T00461008  RH  068%=      5-min Rain = 0
KCR2 131546Z 11010KT 05/M01 A3027 RMK A01 T00461008  RH  068%=      5-min Rain = 0
KCR2 131547Z 10011KT 05/M01 A3027 RMK A01 T00461007  RH  068%=      5-min Rain = 0
KCR2 131548Z 10010KT 05/M01 A3027 RMK A01 T00471007  RH  068%=      5-min Rain = 0
KCR2 131549Z 10010KT 05/M01 A3027 RMK A01 T00471006  RH  068%=      5-min Rain = 0
KCR2 131550Z 12010KT 05/M01 A3027 RMK A01 T00481008  RH  067%=      5-min Rain = 0
KCR2 131551Z 12011KT 05/M01 A3027 RMK A01 T00481005  RH  069%=      5-min Rain = 0
KCR2 131552Z 10011KT 05/M01 A3027 RMK A01 T00491006  RH  067%=      5-min Rain = 0
KCR2 131553Z 11010KT 05/M01 A3027 RMK A01 T00491008  RH  067%=      5-min Rain = 0
KCR2 131554Z 10011KT 05/M01 A3027 RMK A01 T00481008  RH  067%=      5-min Rain = 0
KCR2 131555Z 11009KT 05/M01 A3027 RMK A01 T00481007  RH  067%=      5-min Rain = 0
KCR2 131556Z 11009KT 05/M01 A3027 RMK A01 T00481006  RH  068%=      5-min Rain = 0
KCR2 131557Z 11010KT 05/M01 A3027 RMK A01 T00491006  RH  068%=      5-min Rain = 0
KCR2 131558Z 12010KT 05/M01 A3027 RMK A01 T00501007  RH  067%=      5-min Rain = 0
KCR2 131559Z 12011KT 05/M01 A3027 RMK A01 T00491007  RH  067%=      5-min Rain = 0
KCR2 131600Z 11009KT 05/M01 A3027 RMK A01 T00491008  RH  066%=      5-min Rain = 0
KCR2 131601Z 11009KT 05/M01 A3027 RMK A01 T00491009  RH  066%=      5-min Rain = 0
KCR2 131602Z 10010KT 05/M00 A3027 RMK A01 T00501004  RH  068%=      5-min Rain = 0
KCR2 131603Z 11009KT 05/M01 A3027 RMK A01 T00511005  RH  067%=      5-min Rain = 0
KCR2 131604Z 12009KT 05/M00 A3027 RMK A01 T00521004  RH  067%=      5-min Rain = 0
KCR2 131605Z 12010KT 05/M01 A3027 RMK A01 T00521006  RH  066%=      5-min Rain = 0
KCR2 131606Z 12010KT 05/M01 A3027 RMK A01 T00521007  RH  066%=      5-min Rain = 0
KCR2 131607Z 12009KT 05/M01 A3027 RMK A01 T00511009  RH  065%=      5-min Rain = 0
KCR2 131608Z 13009KT 05/M01 A3027 RMK A01 T00511008  RH  066%=      5-min Rain = 0
KCR2 131609Z 11007KT 05/M01 A3027 RMK A01 T00511006  RH  067%=      5-min Rain = 0
KCR2 131610Z 10010KT 05/M00 A3027 RMK A01 T00531003  RH  067%=      5-min Rain = 0
KCR2 131611Z 11009KT 05/M00 A3027 RMK A01 T00541002  RH  067%=      5-min Rain = 0
KCR2 131612Z 10010KT 06/M00 A3027 RMK A01 T00551002  RH  067%=      5-min Rain = 0
KCR2 131613Z 11010KT 06/M00 A3027 RMK A01 T00551004  RH  066%=      5-min Rain = 0
KCR2 131614Z 12011KT 06/M00 A3027 RMK A01 T00551003  RH  066%=      5-min Rain = 0
KCR2 131615Z 12010KT 06/M00 A3027 RMK A01 T00551003  RH  066%=      5-min Rain = 0
KCR2 131616Z 12008KT 06/M00 A3027 RMK A01 T00551003  RH  066%=      5-min Rain = 0
KCR2 131617Z 12010KT 06/M00 A3027 RMK A01 T00551003  RH  066%=      5-min Rain = 0
KCR2 131618Z 12010KT 06/M01 A3027 RMK A01 T00551006  RH  065%=      5-min Rain = 0
KCR2 131619Z 12008KT 06/M01 A3027 RMK A01 T00551006  RH  065%=      5-min Rain = 0
KCR2 131620Z 12008KT 05/M01 A3027 RMK A01 T00541006  RH  065%=      5-min Rain = 0
KCR2 131621Z 13010KT 06/00 A3027 RMK A01 T00560001  RH  068%=      5-min Rain = 0
KCR2 131622Z 13011KT 06/M00 A3027 RMK A01 T00591002  RH  065%=      5-min Rain = 0
KCR2 131623Z 13010KT 06/M00 A3027 RMK A01 T00581004  RH  064%=      5-min Rain = 0
KCR2 131624Z 13013KT 06/M00 A3027 RMK A01 T00581004  RH  064%=      5-min Rain = 0
KCR2 131625Z 12011KT 06/M00 A3027 RMK A01 T00581003  RH  065%=      5-min Rain = 0
KCR2 131626Z 12012KT 06/M00 A3027 RMK A01 T00591003  RH  065%=      5-min Rain = 0
KCR2 131627Z 13012KT 06/M01 A3027 RMK A01 T00581006  RH  064%=      5-min Rain = 0
KCR2 131628Z 13011KT 06/M01 A3028 RMK A01 T00571007  RH  063%=      5-min Rain = 0
KCR2 131629Z 13010KT 06/M01 A3028 RMK A01 T00571005  RH  064%=      5-min Rain = 0
KCR2 131630Z 13009KT 06/M01 A3028 RMK A01 T00571006  RH  064%=      5-min Rain = 0
KCR2 131631Z 13009G14KT 06/M00 A3028 RMK A01 T00571004  RH  065%=      5-min Rain = 0
KCR2 131632Z 12010KT 06/M00 A3028 RMK A01 T00581001  RH  066%=      5-min Rain = 0
KCR2 131633Z 13012KT 06/M00 A3028 RMK A01 T00591002  RH  065%=      5-min Rain = 0
KCR2 131634Z 13011KT 06/M00 A3028 RMK A01 T00591003  RH  064%=      5-min Rain = 0
KCR2 131635Z 14012KT 06/M00 A3028 RMK A01 T00601002  RH  064%=      5-min Rain = 0
KCR2 131636Z 13011KT 06/M01 A3028 RMK A01 T00601005  RH  063%=      5-min Rain = 0
KCR2 131637Z 13010KT 06/M00 A3028 RMK A01 T00591003  RH  064%=      5-min Rain = 0
KCR2 131638Z 12008KT 06/M00 A3028 RMK A01 T00581003  RH  065%=      5-min Rain = 0
KCR2 131639Z 12008KT 06/M00 A3028 RMK A01 T00581002  RH  065%=      5-min Rain = 0
KCR2 131640Z 14009KT 06/M00 A3028 RMK A01 T00591001  RH  065%=      5-min Rain = 0
KCR2 131641Z 15011KT 06/00 A3028 RMK A01 T00620003  RH  066%=      5-min Rain = 0
KCR2 131642Z 15010KT 06/M00 A3028 RMK A01 T00611002  RH  064%=      5-min Rain = 0
KCR2 131643Z 15010KT 06/M00 A3028 RMK A01 T00601002  RH  064%=      5-min Rain = 0
KCR2 131644Z 14012KT 06/00 A3028 RMK A01 T00600000  RH  066%=      5-min Rain = 0
KCR2 131645Z 13010KT 06/00 A3028 RMK A01 T00610000  RH  065%=      5-min Rain = 0
KCR2 131646Z 14010KT 06/00 A3028 RMK A01 T00620000  RH  065%=      5-min Rain = 0
KCR2 131647Z 13010KT 06/M00 A3028 RMK A01 T00621001  RH  064%=      5-min Rain = 0
KCR2 131648Z 11009KT 06/M00 A3028 RMK A01 T00611001  RH  065%=      5-min Rain = 0
KCR2 131649Z 12009KT 06/00 A3028 RMK A01 T006100-0  RH  065%=      5-min Rain = 0
KCR2 131650Z 12010KT 06/M00 A3028 RMK A01 T00611003  RH  064%=      5-min Rain = 0
KCR2 131651Z 13010KT 06/00 A3028 RMK A01 T00610002  RH  066%=      5-min Rain = 0
KCR2 131652Z 13009KT 06/00 A3028 RMK A01 T00620000  RH  065%=      5-min Rain = 0
KCR2 131653Z 13010KT 06/00 A3028 RMK A01 T00620000  RH  064%=      5-min Rain = 0
KCR2 131654Z 12009KT 06/M00 A3028 RMK A01 T00621003  RH  063%=      5-min Rain = 0
KCR2 131655Z 12010KT 06/M00 A3028 RMK A01 T00601004  RH  063%=      5-min Rain = 0
KCR2 131656Z 11007KT 06/M00 A3028 RMK A01 T00591004  RH  064%=      5-min Rain = 0
KCR2 131657Z 11010KT 06/M00 A3028 RMK A01 T00581003  RH  065%=      5-min Rain = 0
KCR2 131658Z 11008KT 06/M00 A3028 RMK A01 T00591002  RH  065%=      5-min Rain = 0
KCR2 131659Z 12008KT 06/00 A3028 RMK A01 T00600003  RH  067%=      5-min Rain = 0
KCR2 131700Z 12010KT 06/00 A3028 RMK A01 T00620002  RH  065%=      5-min Rain = 0
KCR2 131701Z 13008KT 06/00 A3028 RMK A01 T006200-0  RH  064%=      5-min Rain = 0
KCR2 131702Z 11008KT 06/M00 A3028 RMK A01 T00621001  RH  064%=      5-min Rain = 0
KCR2 131703Z 10009KT 06/00 A3028 RMK A01 T00630001  RH  064%=      5-min Rain = 0
KCR2 131704Z 11011KT 06/00 A3028 RMK A01 T00630001  RH  065%=      5-min Rain = 0
KCR2 131705Z 11010KT 06/00 A3028 RMK A01 T00630003  RH  065%=      5-min Rain = 0
KCR2 131706Z 10008KT 06/00 A3028 RMK A01 T00640002  RH  065%=      5-min Rain = 0
KCR2 131707Z 11007KT 06/M00 A3028 RMK A01 T00621003  RH  063%=      5-min Rain = 0
KCR2 131708Z 10007KT 06/00 A3028 RMK A01 T006200-0  RH  064%=      5-min Rain = 0
KCR2 131709Z 13010KT 07/00 A3028 RMK A01 T00650003  RH  065%=      5-min Rain = 0
KCR2 131710Z 11009KT 07/M00 A3028 RMK A01 T00651001  RH  063%=      5-min Rain = 0
KCR2 131711Z 10012KT 06/M00 A3028 RMK A01 T00641001  RH  063%=      5-min Rain = 0
KCR2 131712Z 13011KT 06/M00 A3028 RMK A01 T00641001  RH  063%=      5-min Rain = 0
KCR2 131713Z 12010KT 06/00 A3028 RMK A01 T00640000  RH  064%=      5-min Rain = 0
KCR2 131714Z 12009KT 06/M00 A3028 RMK A01 T00641001  RH  063%=      5-min Rain = 0
KCR2 131715Z 14010KT 07/00 A3028 RMK A01 T006500-0  RH  063%=      5-min Rain = 0
KCR2 131716Z 14007KT 07/00 A3028 RMK A01 T006600-0  RH  063%=      5-min Rain = 0
KCR2 131717Z 12008KT 07/00 A3028 RMK A01 T00670002  RH  063%=      5-min Rain = 0
KCR2 131718Z 14010KT 07/00 A3028 RMK A01 T00680002  RH  062%=      5-min Rain = 0
KCR2 131719Z 13009KT 07/00 A3028 RMK A01 T00690001  RH  062%=      5-min Rain = 0
KCR2 131720Z 11009KT 07/00 A3028 RMK A01 T00690001  RH  062%=      5-min Rain = 0
KCR2 131721Z 12009KT 07/M00 A3028 RMK A01 T00681003  RH  061%=      5-min Rain = 0
KCR2 131722Z 13008KT 07/01 A3028 RMK A01 T00690005  RH  063%=      5-min Rain = 0
KCR2 131723Z 14009KT 07/01 A3028 RMK A01 T00720008  RH  064%=      5-min Rain = 0
KCR2 131724Z 12011KT 07/01 A3028 RMK A01 T00730008  RH  063%=      5-min Rain = 0
KCR2 131725Z 11009KT 07/M00 A3028 RMK A01 T00701004  RH  059%=      5-min Rain = 0
KCR2 131726Z 12010KT 07/00 A3028 RMK A01 T00690000  RH  062%=      5-min Rain = 0
KCR2 131727Z 12009KT 07/01 A3028 RMK A01 T00710006  RH  063%=      5-min Rain = 0
KCR2 131728Z 12008KT 07/00 A3028 RMK A01 T00720004  RH  062%=      5-min Rain = 0
KCR2 131729Z 11007KT 07/00 A3028 RMK A01 T00720003  RH  061%=      5-min Rain = 0
KCR2 131730Z 11008KT 07/00 A3028 RMK A01 T00720002  RH  061%=      5-min Rain = 0
KCR2 131731Z 12010KT 07/00 A3028 RMK A01 T00720003  RH  061%=      5-min Rain = 0
KCR2 131732Z 12010KT 07/M00 A3028 RMK A01 T00721002  RH  059%=      5-min Rain = 0
KCR2 131733Z 12009KT 07/00 A3028 RMK A01 T007000-0  RH  061%=      5-min Rain = 0
KCR2 131734Z 11008KT 07/M00 A3028 RMK A01 T00691001  RH  061%=      5-min Rain = 0
KCR2 131735Z 11008KT 07/00 A3028 RMK A01 T006800-0  RH  062%=      5-min Rain = 0
KCR2 131736Z 11009KT 07/00 A3027 RMK A01 T00690001  RH  062%=      5-min Rain = 0
KCR2 131737Z 11010KT 07/00 A3027 RMK A01 T00710000  RH  061%=      5-min Rain = 0
KCR2 131738Z 11009KT 07/00 A3027 RMK A01 T00710003  RH  062%=      5-min Rain = 0
KCR2 131739Z 11009KT 07/00 A3027 RMK A01 T00720004  RH  062%=      5-min Rain = 0
KCR2 131740Z 11011KT 07/00 A3027 RMK A01 T00740003  RH  061%=      5-min Rain = 0
KCR2 131741Z 11013KT 07/00 A3027 RMK A01 T00730002  RH  060%=      5-min Rain = 0
KCR2 131742Z 11012KT 07/00 A3027 RMK A01 T00720002  RH  061%=      5-min Rain = 0
KCR2 131743Z 13010KT 07/00 A3027 RMK A01 T00730003  RH  061%=      5-min Rain = 0
KCR2 131744Z 14008KT 07/00 A3027 RMK A01 T00730004  RH  061%=      5-min Rain = 0
KCR2 131745Z 14009KT 08/01 A3027 RMK A01 T00750005  RH  061%=      5-min Rain = 0
KCR2 131746Z 12007KT 08/00 A3027 RMK A01 T00750001  RH  060%=      5-min Rain = 0
KCR2 131747Z 13007KT 07/00 A3027 RMK A01 T00730001  RH  060%=      5-min Rain = 0
KCR2 131748Z 12006KT 07/00 A3027 RMK A01 T00740002  RH  060%=      5-min Rain = 0
KCR2 131749Z 12009KT 07/00 A3027 RMK A01 T00740002  RH  060%=      5-min Rain = 0
KCR2 131750Z 15009KT 08/00 A3027 RMK A01 T00750002  RH  060%=      5-min Rain = 0
KCR2 131751Z 15009KT 08/01 A3027 RMK A01 T00750005  RH  061%=      5-min Rain = 0
KCR2 131752Z 13009KT 08/01 A3027 RMK A01 T00770010  RH  063%=      5-min Rain = 0
KCR2 131753Z 13010KT 08/01 A3026 RMK A01 T00770007  RH  061%=      5-min Rain = 0
KCR2 131754Z 14007KT 08/01 A3026 RMK A01 T00770005  RH  060%=      5-min Rain = 0
KCR2 131755Z 12007KT 08/00 A3026 RMK A01 T00760003  RH  060%=      5-min Rain = 0
KCR2 131756Z 10007KT 08/00 A3026 RMK A01 T00760004  RH  060%=      5-min Rain = 0
KCR2 131757Z 11011KT 08/01 A3026 RMK A01 T00760005  RH  061%=      5-min Rain = 0
KCR2 131758Z 13011KT 08/01 A3026 RMK A01 T00780005  RH  060%=      5-min Rain = 0
KCR2 131759Z 13008KT 08/01 A3026 RMK A01 T00770005  RH  060%=      5-min Rain = 0
KCR2 131800Z 13009KT 08/01 A3026 RMK A01 T00780005  RH  060%=      5-min Rain = 0
KCR2 131801Z 11009KT 08/01 A3026 RMK A01 T00800009  RH  061%=      5-min Rain = 0
KCR2 131802Z 12009KT 08/01 A3026 RMK A01 T00800005  RH  059%=      5-min Rain = 0
KCR2 131803Z 13008KT 08/01 A3026 RMK A01 T00800006  RH  060%=      5-min Rain = 0
KCR2 131804Z 11009KT 08/00 A3026 RMK A01 T00790004  RH  059%=      5-min Rain = 0
KCR2 131805Z 10010KT 08/00 A3026 RMK A01 T00790004  RH  059%=      5-min Rain = 0
KCR2 131806Z 10011KT 08/01 A3026 RMK A01 T00800011  RH  061%=      5-min Rain = 0
KCR2 131807Z 13008KT 08/01 A3026 RMK A01 T00810006  RH  059%=      5-min Rain = 0
KCR2 131808Z 14005KT 08/00 A3026 RMK A01 T00800002  RH  058%=      5-min Rain = 0
KCR2 131809Z 13007KT 08/00 A3026 RMK A01 T00790004  RH  059%=      5-min Rain = 0
KCR2 131810Z 12010KT 08/01 A3026 RMK A01 T00810006  RH  059%=      5-min Rain = 0
KCR2 131811Z 11008KT 08/01 A3026 RMK A01 T00810005  RH  059%=      5-min Rain = 0
KCR2 131812Z 14011KT 08/01 A3026 RMK A01 T00820010  RH  060%=      5-min Rain = 0
KCR2 131813Z 12008KT 08/01 A3026 RMK A01 T00830007  RH  059%=      5-min Rain = 0
KCR2 131814Z 12009KT 08/01 A3026 RMK A01 T00840007  RH  059%=      5-min Rain = 0
KCR2 131815Z 12007KT 08/00 A3026 RMK A01 T00820003  RH  058%=      5-min Rain = 0
KCR2 131816Z 12011KT 08/01 A3025 RMK A01 T00820007  RH  059%=      5-min Rain = 0
KCR2 131817Z 13011KT 08/01 A3025 RMK A01 T00830007  RH  059%=      5-min Rain = 0
KCR2 131818Z 13011KT 09/01 A3025 RMK A01 T00850007  RH  058%=      5-min Rain = 0
KCR2 131819Z 13008KT 09/01 A3026 RMK A01 T00850005  RH  057%=      5-min Rain = 0
KCR2 131820Z 15006KT 08/00 A3026 RMK A01 T00840004  RH  057%=      5-min Rain = 0
KCR2 131821Z 15003KT 08/00 A3025 RMK A01 T00840004  RH  057%=      5-min Rain = 0
KCR2 131822Z 10005KT 09/00 A3025 RMK A01 T00850001  RH  055%=      5-min Rain = 0
KCR2 131823Z 12007KT 09/01 A3025 RMK A01 T00860006  RH  057%=      5-min Rain = 0
KCR2 131824Z 14009KT 09/01 A3025 RMK A01 T00880010  RH  058%=      5-min Rain = 0
KCR2 131825Z 15007KT 09/01 A3025 RMK A01 T00910011  RH  057%=      5-min Rain = 0
KCR2 131826Z 14008KT 09/01 A3025 RMK A01 T00920009  RH  056%=      5-min Rain = 0
KCR2 131827Z 14006KT 09/00 A3025 RMK A01 T00910004  RH  055%=      5-min Rain = 0
KCR2 131828Z 13008KT 09/01 A3025 RMK A01 T00900006  RH  056%=      5-min Rain = 0
KCR2 131829Z 11006KT 09/01 A3025 RMK A01 T00900005  RH  055%=      5-min Rain = 0
KCR2 131830Z 11007KT 09/01 A3025 RMK A01 T00900009  RH  057%=      5-min Rain = 0
KCR2 131831Z 13009KT 09/01 A3025 RMK A01 T00920008  RH  056%=      5-min Rain = 0
KCR2 131832Z 16009KT 09/01 A3025 RMK A01 T00930014  RH  058%=      5-min Rain = 0
KCR2 131833Z 16008KT 10/01 A3025 RMK A01 T00950010  RH  055%=      5-min Rain = 0
KCR2 131834Z 15008KT 10/00 A3024 RMK A01 T00950003  RH  053%=      5-min Rain = 0
KCR2 131835Z 13008KT 09/01 A3024 RMK A01 T00940005  RH  054%=      5-min Rain = 0
KCR2 131836Z 14010KT 09/01 A3024 RMK A01 T00940008  RH  055%=      5-min Rain = 0
KCR2 131837Z 15008KT 10/01 A3024 RMK A01 T00950009  RH  055%=      5-min Rain = 0
KCR2 131838Z 15006KT 10/00 A3024 RMK A01 T00960004  RH  053%=      5-min Rain = 0
KCR2 131839Z 14010KT 10/01 A3024 RMK A01 T00950008  RH  054%=      5-min Rain = 0
KCR2 131840Z 14010KT 10/01 A3024 RMK A01 T00960010  RH  055%=      5-min Rain = 0
KCR2 131841Z 14008KT 10/01 A3024 RMK A01 T00960013  RH  056%=      5-min Rain = 0
KCR2 131842Z 15008KT 10/01 A3024 RMK A01 T00980013  RH  056%=      5-min Rain = 0
KCR2 131843Z 17009KT 10/01 A3024 RMK A01 T00980009  RH  054%=      5-min Rain = 0
KCR2 131844Z 18007KT 10/00 A3024 RMK A01 T00970003  RH  052%=      5-min Rain = 0
KCR2 131845Z 17007KT 10/01 A3024 RMK A01 T00970013  RH  055%=      5-min Rain = 0
KCR2 131846Z 16009KT 10/01 A3023 RMK A01 T00990007  RH  053%=      5-min Rain = 0
KCR2 131847Z 14012KT 10/00 A3023 RMK A01 T00980004  RH  052%=      5-min Rain = 0
KCR2 131848Z 15010KT 10/M00 A3023 RMK A01 T00991001  RH  050%=      5-min Rain = 0
KCR2 131849Z 13010KT 10/M00 A3023 RMK A01 T00971004  RH  049%=      5-min Rain = 0
KCR2 131850Z 13007KT 10/M01 A3023 RMK A01 T00961005  RH  049%=      5-min Rain = 0
KCR2 131851Z 14007KT 10/M00 A3023 RMK A01 T00951003  RH  050%=      5-min Rain = 0
KCR2 131852Z 15006KT 10/M00 A3023 RMK A01 T00961001  RH  051%=      5-min Rain = 0
KCR2 131853Z 16005KT 10/M00 A3023 RMK A01 T00971003  RH  050%=      5-min Rain = 0
KCR2 131854Z 14006KT 10/M01 A3023 RMK A01 T00971006  RH  049%=      5-min Rain = 0
KCR2 131855Z 14009KT 10/M00 A3023 RMK A01 T00981001  RH  050%=      5-min Rain = 0
KCR2 131856Z 17008KT 10/00 A3023 RMK A01 T01000004  RH  051%=      5-min Rain = 0
KCR2 131857Z 15008KT 10/01 A3023 RMK A01 T01000005  RH  051%=      5-min Rain = 0
KCR2 131858Z 14010KT 10/01 A3023 RMK A01 T01010005  RH  051%=      5-min Rain = 0
KCR2 131859Z 15008KT 10/00 A3023 RMK A01 T01010002  RH  050%=      5-min Rain = 0
KCR2 131900Z 17009KT 10/01 A3022 RMK A01 T01010006  RH  052%=      5-min Rain = 0
KCR2 131901Z 19007G13KT 10/00 A3022 RMK A01 T01020003  RH  050%=      5-min Rain = 0
KCR2 131902Z 17011KT 10/01 A3022 RMK A01 T01030006  RH  051%=      5-min Rain = 0
KCR2 131903Z 17009KT 10/01 A3022 RMK A01 T01040008  RH  051%=      5-min Rain = 0
KCR2 131904Z 15008KT 10/00 A3022 RMK A01 T01040002  RH  049%=      5-min Rain = 0
KCR2 131905Z 16009KT 10/00 A3022 RMK A01 T01030003  RH  050%=      5-min Rain = 0
KCR2 131906Z 15010KT 10/00 A3022 RMK A01 T01030002  RH  050%=      5-min Rain = 0
KCR2 131907Z 15013KT 11/00 A3022 RMK A01 T01050002  RH  049%=      5-min Rain = 0
KCR2 131908Z 16012KT 11/00 A3022 RMK A01 T01050003  RH  049%=      5-min Rain = 0
KCR2 131909Z 17010KT 10/M00 A3022 RMK A01 T01041001  RH  048%=      5-min Rain = 0
KCR2 131910Z 17007KT 10/M00 A3022 RMK A01 T01031003  RH  048%=      5-min Rain = 0
KCR2 131911Z 16007KT 10/M00 A3022 RMK A01 T01031003  RH  048%=      5-min Rain = 0
KCR2 131912Z 17007KT 10/M00 A3022 RMK A01 T01021004  RH  048%=      5-min Rain = 0
KCR2 131913Z 16008KT 10/M00 A3022 RMK A01 T01021003  RH  048%=      5-min Rain = 0
KCR2 131914Z 17010KT 10/00 A3022 RMK A01 T01030002  RH  049%=      5-min Rain = 0
KCR2 131915Z 18011KT 10/00 A3022 RMK A01 T01040002  RH  049%=      5-min Rain = 0
KCR2 131916Z 18009KT 11/M00 A3021 RMK A01 T01051002  RH  048%=      5-min Rain = 0
KCR2 131917Z 20008KT 11/01 A3021 RMK A01 T01050005  RH  050%=      5-min Rain = 0
KCR2 131918Z 18008KT 11/00 A3021 RMK A01 T01050000  RH  048%=      5-min Rain = 0
KCR2 131919Z 19011KT 10/00 A3021 RMK A01 T01040002  RH  049%=      5-min Rain = 0
KCR2 131920Z 19011KT 11/00 A3021 RMK A01 T01050003  RH  049%=      5-min Rain = 0
KCR2 131921Z 18012KT 11/01 A3021 RMK A01 T01060005  RH  050%=      5-min Rain = 0
KCR2 131922Z 19010KT 11/01 A3021 RMK A01 T01060006  RH  050%=      5-min Rain = 0
KCR2 131923Z 19011KT 11/00 A3021 RMK A01 T01060003  RH  049%=      5-min Rain = 0
KCR2 131924Z 18010KT 11/00 A3021 RMK A01 T01050002  RH  049%=      5-min Rain = 0
KCR2 131925Z 17010KT 11/M00 A3021 RMK A01 T01051002  RH  048%=      5-min Rain = 0
KCR2 131926Z 17009KT 11/00 A3021 RMK A01 T01050000  RH  048%=      5-min Rain = 0
KCR2 131927Z 17009KT 11/M00 A3021 RMK A01 T01061004  RH  047%=      5-min Rain = 0
KCR2 131928Z 16011KT 11/01 A302 RMK A01 T01080007  RH  050%=      5-min Rain = 0
KCR2 131929Z 16010KT 11/00 A302 RMK A01 T01080002  RH  048%=      5-min Rain = 0
KCR2 131930Z 17012KT 11/00 A302 RMK A01 T01070003  RH  049%=      5-min Rain = 0
KCR2 131931Z 16010KT 11/00 A302 RMK A01 T01080002  RH  048%=      5-min Rain = 0
KCR2 131932Z 16008KT 11/M01 A302 RMK A01 T01071006  RH  045%=      5-min Rain = 0
KCR2 131933Z 17009KT 11/M00 A302 RMK A01 T01061003  RH  047%=      5-min Rain = 0
KCR2 131934Z 17008KT 11/00 A302 RMK A01 T01070002  RH  048%=      5-min Rain = 0
KCR2 131935Z 17010KT 11/M00 A302 RMK A01 T01071001  RH  047%=      5-min Rain = 0
KCR2 131936Z 16006KT 11/M00 A302 RMK A01 T01061003  RH  047%=      5-min Rain = 0
KCR2 131937Z 15006KT 11/00 A302 RMK A01 T01060003  RH  049%=      5-min Rain = 0
KCR2 131938Z 16013KT 11/00 A302 RMK A01 T01070003  RH  048%=      5-min Rain = 0
KCR2 131939Z 17011KT 11/M00 A302 RMK A01 T01081004  RH  046%=      5-min Rain = 0
KCR2 131940Z 17012KT 11/00 A302 RMK A01 T010700-0  RH  047%=      5-min Rain = 0
KCR2 131941Z 17009KT 11/M00 A302 RMK A01 T01071004  RH  046%=      5-min Rain = 0
KCR2 131942Z 18009KT 11/00 A302 RMK A01 T01070001  RH  048%=      5-min Rain = 0
KCR2 131943Z 19009KT 11/01 A302 RMK A01 T01100010  RH  050%=      5-min Rain = 0
KCR2 131944Z 20008KT 11/00 A302 RMK A01 T01100001  RH  047%=      5-min Rain = 0
KCR2 131945Z 20004KT 11/M00 A302 RMK A01 T01081004  RH  046%=      5-min Rain = 0
KCR2 131946Z 18006KT 11/M00 A302 RMK A01 T01071003  RH  047%=      5-min Rain = 0
KCR2 131947Z 17008KT 11/00 A3019 RMK A01 T01080002  RH  048%=      5-min Rain = 0
KCR2 131948Z 17010KT 11/01 A3019 RMK A01 T01120010  RH  049%=      5-min Rain = 0
KCR2 131949Z 19010KT 12/01 A3019 RMK A01 T01150007  RH  047%=      5-min Rain = 0
KCR2 131950Z 18010KT 11/00 A3019 RMK A01 T01140003  RH  046%=      5-min Rain = 0
KCR2 131951Z 18008KT 11/M01 A3019 RMK A01 T01111005  RH  044%=      5-min Rain = 0
KCR2 131952Z 18008KT 11/M00 A3019 RMK A01 T01101004  RH  045%=      5-min Rain = 0
KCR2 131953Z 16005KT 11/M01 A3019 RMK A01 T01091010  RH  044%=      5-min Rain = 0
KCR2 131954Z 17012KT 11/M00 A3019 RMK A01 T01101001  RH  047%=      5-min Rain = 0
KCR2 131955Z 18012KT 11/M00 A3019 RMK A01 T01131001  RH  045%=      5-min Rain = 0
KCR2 131956Z 17011KT 11/M00 A3019 RMK A01 T01131003  RH  045%=      5-min Rain = 0
KCR2 131957Z 17009KT 11/M00 A3019 RMK A01 T01121003  RH  045%=      5-min Rain = 0
KCR2 131958Z 15008KT 11/M01 A3019 RMK A01 T01111008  RH  044%=      5-min Rain = 0
KCR2 131959Z 17007KT 11/M01 A3019 RMK A01 T01101007  RH  044%=      5-min Rain = 0
KCR2 132000Z 17012KT 11/00 A3019 RMK A01 T011200-0  RH  046%=      5-min Rain = 0
KCR2 132001Z 18012KT 11/M01 A3019 RMK A01 T01131007  RH  043%=      5-min Rain = 0
KCR2 132002Z 18010KT 11/M01 A3019 RMK A01 T01111009  RH  043%=      5-min Rain = 0
KCR2 132003Z 18008KT 11/M01 A3019 RMK A01 T01101013  RH  042%=      5-min Rain = 0
KCR2 132004Z 18008KT 11/M01 A3019 RMK A01 T01091012  RH  043%=      5-min Rain = 0
KCR2 132005Z 18009KT 11/M01 A3018 RMK A01 T01091006  RH  045%=      5-min Rain = 0
KCR2 132006Z 19011KT 11/01 A3018 RMK A01 T01110005  RH  048%=      5-min Rain = 0
KCR2 132007Z 17010KT 11/00 A3018 RMK A01 T01140002  RH  046%=      5-min Rain = 0
KCR2 132008Z 17008KT 11/M01 A3018 RMK A01 T01131005  RH  044%=      5-min Rain = 0
KCR2 132009Z 18006KT 11/00 A3018 RMK A01 T01120001  RH  046%=      5-min Rain = 0
KCR2 132010Z 17005KT 11/M00 A3018 RMK A01 T01121002  RH  045%=      5-min Rain = 0
KCR2 132011Z 20006KT 11/M00 A3018 RMK A01 T01121001  RH  046%=      5-min Rain = 0
KCR2 132012Z 20005KT 11/M01 A3018 RMK A01 T01131005  RH  044%=      5-min Rain = 0
KCR2 132013Z 20007G13KT 11/M00 A3018 RMK A01 T01131001  RH  046%=      5-min Rain = 0
KCR2 132014Z 18010KT 12/01 A3018 RMK A01 T01170007  RH  047%=      5-min Rain = 0
KCR2 132015Z 18009G14KT 12/00 A3018 RMK A01 T01180001  RH  045%=      5-min Rain = 0
KCR2 132016Z 18011KT 12/00 A3018 RMK A01 T01180001  RH  045%=      5-min Rain = 0
KCR2 132017Z 17008KT 11/M01 A3018 RMK A01 T01141007  RH  043%=      5-min Rain = 0
KCR2 132018Z 17008KT 11/M00 A3018 RMK A01 T01131001  RH  045%=      5-min Rain = 0
KCR2 132019Z 17008KT 11/M01 A3018 RMK A01 T01141005  RH  044%=      5-min Rain = 0
KCR2 132020Z 15008KT 11/00 A3018 RMK A01 T01140002  RH  046%=      5-min Rain = 0
KCR2 132021Z 14007KT 12/00 A3018 RMK A01 T011500-0  RH  045%=      5-min Rain = 0
KCR2 132022Z 16005KT 12/M00 A3018 RMK A01 T01151004  RH  044%=      5-min Rain = 0
KCR2 132023Z 16006KT 12/M00 A3018 RMK A01 T01151003  RH  044%=      5-min Rain = 0
KCR2 132024Z 17010KT 12/01 A3018 RMK A01 T01170006  RH  047%=      5-min Rain = 0
KCR2 132025Z 17008KT 12/00 A3018 RMK A01 T011800-0  RH  044%=      5-min Rain = 0
KCR2 132026Z 17005KT 12/M01 A3018 RMK A01 T01161008  RH  042%=      5-min Rain = 0
KCR2 132027Z 17007KT 11/M00 A3018 RMK A01 T01141003  RH  044%=      5-min Rain = 0
KCR2 132028Z 18009KT 12/01 A3018 RMK A01 T01160005  RH  047%=      5-min Rain = 0
KCR2 132029Z 19009KT 12/01 A3018 RMK A01 T01190007  RH  046%=      5-min Rain = 0
KCR2 132030Z 20011KT 12/00 A3018 RMK A01 T01200001  RH  044%=      5-min Rain = 0
KCR2 132031Z 20010KT 12/00 A3018 RMK A01 T01190001  RH  044%=      5-min Rain = 0
KCR2 132032Z 18011KT 12/00 A3017 RMK A01 T01190001  RH  044%=      5-min Rain = 0
KCR2 132033Z 19009KT 12/00 A3018 RMK A01 T01190003  RH  045%=      5-min Rain = 0
KCR2 132034Z 19006KT 12/M00 A3017 RMK A01 T01181001  RH  044%=      5-min Rain = 0
KCR2 132035Z 18007KT 12/M00 A3017 RMK A01 T01171002  RH  044%=      5-min Rain = 0
KCR2 132036Z 17009KT 12/01 A3017 RMK A01 T01170005  RH  046%=      5-min Rain = 0
KCR2 132037Z 17010KT 12/00 A3017 RMK A01 T01190002  RH  045%=      5-min Rain = 0
KCR2 132038Z 18008KT 12/M00 A3017 RMK A01 T01181004  RH  043%=      5-min Rain = 0
KCR2 132039Z 17006KT 12/M00 A3017 RMK A01 T01171003  RH  044%=      5-min Rain = 0
KCR2 132040Z 18006KT 12/M00 A3017 RMK A01 T01181001  RH  044%=      5-min Rain = 0
KCR2 132041Z 19011KT 12/00 A3017 RMK A01 T01190001  RH  044%=      5-min Rain = 0
KCR2 132042Z 20008KT 12/M01 A3017 RMK A01 T01201005  RH  042%=      5-min Rain = 0
KCR2 132043Z 20009KT 12/M01 A3017 RMK A01 T01211005  RH  042%=      5-min Rain = 0
KCR2 132044Z 18012KT 12/M00 A3017 RMK A01 T01211003  RH  042%=      5-min Rain = 0
KCR2 132045Z 18009KT 12/M00 A3017 RMK A01 T01221003  RH  042%=      5-min Rain = 0
KCR2 132046Z 19009KT 12/M01 A3017 RMK A01 T01211005  RH  042%=      5-min Rain = 0
KCR2 132047Z 16008KT 12/M00 A3017 RMK A01 T01211001  RH  043%=      5-min Rain = 0
KCR2 132048Z 16008KT 12/00 A3017 RMK A01 T01210000  RH  043%=      5-min Rain = 0
KCR2 132049Z 16008KT 12/M00 A3017 RMK A01 T01211004  RH  042%=      5-min Rain = 0
KCR2 132050Z 15008KT 12/M00 A3017 RMK A01 T01201004  RH  042%=      5-min Rain = 0
KCR2 132051Z 13007KT 12/M00 A3017 RMK A01 T01201004  RH  042%=      5-min Rain = 0
KCR2 132052Z 14010KT 12/M00 A3017 RMK A01 T01201004  RH  042%=      5-min Rain = 0
KCR2 132053Z 14008KT 12/M01 A3017 RMK A01 T01191013  RH  040%=      5-min Rain = 0
KCR2 132054Z 17008KT 12/M01 A3017 RMK A01 T01191009  RH  041%=      5-min Rain = 0
KCR2 132055Z 19012KT 12/00 A3017 RMK A01 T01220001  RH  043%=      5-min Rain = 0
KCR2 132056Z 20011KT 12/M00 A3017 RMK A01 T01241003  RH  042%=      5-min Rain = 0
KCR2 132057Z 19011KT 12/M00 A3017 RMK A01 T01241003  RH  042%=      5-min Rain = 0
KCR2 132058Z 19008KT 12/M00 A3017 RMK A01 T01241003  RH  042%=      5-min Rain = 0
KCR2 132059Z 17009KT 12/M00 A3017 RMK A01 T01241003  RH  042%=      5-min Rain = 0
KCR2 132100Z 17009KT 13/00 A3017 RMK A01 T012500-0  RH  042%=      5-min Rain = 0
KCR2 132101Z 18008KT 12/M01 A3017 RMK A01 T01241009  RH  040%=      5-min Rain = 0
KCR2 132102Z 19007KT 12/M01 A3017 RMK A01 T01221010  RH  040%=      5-min Rain = 0
KCR2 132103Z 19006KT 12/M01 A3017 RMK A01 T01221009  RH  040%=      5-min Rain = 0
KCR2 132104Z 18007KT 12/M01 A3017 RMK A01 T01221009  RH  040%=      5-min Rain = 0
KCR2 132105Z 19009KT 12/M00 A3017 RMK A01 T01231004  RH  042%=      5-min Rain = 0
KCR2 132106Z 19008KT 13/M01 A3017 RMK A01 T01251009  RH  040%=      5-min Rain = 0
KCR2 132107Z 20009KT 12/M01 A3017 RMK A01 T01241009  RH  040%=      5-min Rain = 0
KCR2 132108Z 20008KT 12/M01 A3017 RMK A01 T01241011  RH  039%=      5-min Rain = 0
KCR2 132109Z 20008KT 12/M01 A3017 RMK A01 T01221011  RH  040%=      5-min Rain = 0
KCR2 132110Z 19009KT 12/M01 A3017 RMK A01 T01221010  RH  040%=      5-min Rain = 0
KCR2 132111Z 18007KT 12/M01 A3017 RMK A01 T01221009  RH  040%=      5-min Rain = 0
KCR2 132112Z 17007KT 12/M01 A3017 RMK A01 T01241005  RH  041%=      5-min Rain = 0
KCR2 132113Z 16009KT 13/00 A3017 RMK A01 T01250002  RH  043%=      5-min Rain = 0
KCR2 132114Z 16008KT 13/M00 A3016 RMK A01 T01261004  RH  041%=      5-min Rain = 0
KCR2 132115Z 16006KT 13/M00 A3016 RMK A01 T01251002  RH  042%=      5-min Rain = 0
KCR2 132116Z 16008KT 13/M01 A3016 RMK A01 T01261005  RH  040%=      5-min Rain = 0
KCR2 132117Z 16008KT 13/M01 A3016 RMK A01 T01261005  RH  041%=      5-min Rain = 0
KCR2 132118Z 17007KT 13/M01 A3016 RMK A01 T01251007  RH  040%=      5-min Rain = 0
KCR2 132119Z 17009KT 13/M01 A3016 RMK A01 T01251007  RH  040%=      5-min Rain = 0
KCR2 132120Z 18010KT 13/M01 A3016 RMK A01 T01251005  RH  041%=      5-min Rain = 0
KCR2 132121Z 19008KT 13/M01 A3016 RMK A01 T01261005  RH  040%=      5-min Rain = 0
KCR2 132122Z 18007KT 13/M01 A3016 RMK A01 T01261006  RH  040%=      5-min Rain = 0
KCR2 132123Z 17009KT 13/M00 A3016 RMK A01 T01261002  RH  041%=      5-min Rain = 0
KCR2 132124Z 16009KT 13/01 A3016 RMK A01 T01300006  RH  043%=      5-min Rain = 0
KCR2 132125Z 16007KT 13/01 A3016 RMK A01 T01320008  RH  043%=      5-min Rain = 0
KCR2 132126Z 17005KT 13/00 A3016 RMK A01 T01320003  RH  041%=      5-min Rain = 0
KCR2 132127Z 18004KT 13/M00 A3016 RMK A01 T01321002  RH  040%=      5-min Rain = 0
KCR2 132128Z 19006KT 13/00 A3016 RMK A01 T01320004  RH  042%=      5-min Rain = 0
KCR2 132129Z 17009KT 13/00 A3016 RMK A01 T01320002  RH  041%=      5-min Rain = 0
KCR2 132130Z 17011KT 13/M00 A3015 RMK A01 T01321002  RH  040%=      5-min Rain = 0
KCR2 132131Z 17010KT 13/M01 A3015 RMK A01 T01311007  RH  039%=      5-min Rain = 0
KCR2 132132Z 18009KT 13/M01 A3015 RMK A01 T01291005  RH  039%=      5-min Rain = 0
KCR2 132133Z 16008KT 13/M01 A3015 RMK A01 T01301007  RH  039%=      5-min Rain = 0
KCR2 132134Z 16009KT 13/00 A3015 RMK A01 T01300001  RH  041%=      5-min Rain = 0
KCR2 132135Z 19009KT 13/01 A3015 RMK A01 T01330007  RH  042%=      5-min Rain = 0
KCR2 132136Z 19010KT 13/M00 A3015 RMK A01 T01341003  RH  039%=      5-min Rain = 0
KCR2 132137Z 18008KT 13/M01 A3015 RMK A01 T01311009  RH  038%=      5-min Rain = 0
KCR2 132138Z 17008KT 13/M01 A3016 RMK A01 T01291008  RH  039%=      5-min Rain = 0
KCR2 132139Z 18008KT 13/M01 A3015 RMK A01 T01281006  RH  040%=      5-min Rain = 0
KCR2 132140Z 16008KT 13/M00 A3015 RMK A01 T01291003  RH  040%=      5-min Rain = 0
KCR2 132141Z 15008KT 13/M00 A3015 RMK A01 T01291001  RH  041%=      5-min Rain = 0
KCR2 132142Z 14007KT 13/M00 A3015 RMK A01 T01301002  RH  040%=      5-min Rain = 0
KCR2 132143Z 15007KT 13/00 A3015 RMK A01 T01300000  RH  041%=      5-min Rain = 0
KCR2 132144Z 16006KT 13/00 A3015 RMK A01 T01310000  RH  041%=      5-min Rain = 0
KCR2 132145Z 15009KT 13/00 A3015 RMK A01 T01320003  RH  041%=      5-min Rain = 0
KCR2 132146Z 14008KT 13/M00 A3015 RMK A01 T01321004  RH  039%=      5-min Rain = 0
KCR2 132147Z 15007KT 13/M00 A3015 RMK A01 T01311002  RH  040%=      5-min Rain = 0
KCR2 132148Z 16006KT 13/M01 A3015 RMK A01 T01301006  RH  039%=      5-min Rain = 0
KCR2 132149Z 17008KT 13/M00 A3015 RMK A01 T01291003  RH  040%=      5-min Rain = 0
KCR2 132150Z 18010KT 13/M00 A3015 RMK A01 T01311002  RH  040%=      5-min Rain = 0
KCR2 132151Z 17008KT 13/M01 A3015 RMK A01 T01311010  RH  038%=      5-min Rain = 0
KCR2 132152Z 16006KT 13/M01 A3015 RMK A01 T01301012  RH  037%=      5-min Rain = 0
KCR2 132153Z 18007KT 13/M01 A3015 RMK A01 T01291009  RH  038%=      5-min Rain = 0
KCR2 132154Z 20008KT 13/M00 A3015 RMK A01 T01311002  RH  040%=      5-min Rain = 0
KCR2 132155Z 19009KT 13/M00 A3015 RMK A01 T01321002  RH  040%=      5-min Rain = 0
KCR2 132156Z 18007KT 13/M01 A3015 RMK A01 T01321008  RH  038%=      5-min Rain = 0
KCR2 132157Z 17012KT 13/M00 A3015 RMK A01 T01321002  RH  040%=      5-min Rain = 0
KCR2 132158Z 16013KT 13/M01 A3015 RMK A01 T01331005  RH  038%=      5-min Rain = 0
KCR2 132159Z 18010KT 13/M01 A3015 RMK A01 T01331008  RH  038%=      5-min Rain = 0
KCR2 132200Z 18009KT 13/M01 A3015 RMK A01 T01331011  RH  037%=      5-min Rain = 0
KCR2 132201Z 17010KT 13/M01 A3015 RMK A01 T01321010  RH  038%=      5-min Rain = 0
KCR2 132202Z 17007KT 13/M01 A3015 RMK A01 T01311011  RH  037%=      5-min Rain = 0
KCR2 132203Z 15010KT 13/M00 A3015 RMK A01 T01331003  RH  039%=      5-min Rain = 0
KCR2 132204Z 16009KT 13/M01 A3015 RMK A01 T01341010  RH  037%=      5-min Rain = 0
KCR2 132205Z 17007KT 13/M01 A3015 RMK A01 T01341008  RH  038%=      5-min Rain = 0
KCR2 132206Z 18007KT 13/M01 A3015 RMK A01 T01341012  RH  036%=      5-min Rain = 0
KCR2 132207Z 19009KT 13/M01 A3014 RMK A01 T01341014  RH  036%=      5-min Rain = 0
KCR2 132208Z 19011KT 14/M01 A3014 RMK A01 T01351010  RH  037%=      5-min Rain = 0
KCR2 132209Z 18008KT 13/M02 A3014 RMK A01 T01341016  RH  035%=      5-min Rain = 0
KCR2 132210Z 19011KT 13/M01 A3014 RMK A01 T01331011  RH  037%=      5-min Rain = 0
KCR2 132211Z 20009KT 13/M01 A3014 RMK A01 T01341013  RH  036%=      5-min Rain = 0
KCR2 132212Z 21008KT 13/M01 A3014 RMK A01 T01341011  RH  037%=      5-min Rain = 0
KCR2 132213Z 21008KT 13/M01 A3014 RMK A01 T01341012  RH  036%=      5-min Rain = 0
KCR2 132214Z 17008KT 14/M01 A3014 RMK A01 T01351005  RH  038%=      5-min Rain = 0
KCR2 132215Z 16006KT 14/M01 A3014 RMK A01 T01361011  RH  036%=      5-min Rain = 0
KCR2 132216Z 16005KT 14/M01 A3014 RMK A01 T01361012  RH  036%=      5-min Rain = 0
KCR2 132217Z 14007KT 14/M01 A3014 RMK A01 T01361006  RH  038%=      5-min Rain = 0
KCR2 132218Z 15010KT 14/M01 A3014 RMK A01 T01361006  RH  037%=      5-min Rain = 0
KCR2 132219Z 15009KT 14/M01 A3014 RMK A01 T01361011  RH  036%=      5-min Rain = 0
KCR2 132220Z 17008KT 14/M01 A3014 RMK A01 T01351011  RH  037%=      5-min Rain = 0
KCR2 132221Z 17005KT 13/M02 A3014 RMK A01 T01331017  RH  035%=      5-min Rain = 0
KCR2 132222Z 18006KT 13/M01 A3014 RMK A01 T01331012  RH  037%=      5-min Rain = 0
KCR2 132223Z 17005KT 13/M01 A3014 RMK A01 T01331014  RH  036%=      5-min Rain = 0
KCR2 132224Z 19007KT 13/M01 A3014 RMK A01 T01341008  RH  037%=      5-min Rain = 0
KCR2 132225Z 19010KT 14/M01 A3014 RMK A01 T01351012  RH  036%=      5-min Rain = 0
KCR2 132226Z 17007KT 14/M01 A3014 RMK A01 T01361011  RH  036%=      5-min Rain = 0
KCR2 132227Z 17009KT 14/M01 A3014 RMK A01 T01381011  RH  036%=      5-min Rain = 0
KCR2 132228Z 18008KT 14/M01 A3014 RMK A01 T01381014  RH  035%=      5-min Rain = 0
KCR2 132229Z 19008KT 14/M01 A3014 RMK A01 T01381012  RH  036%=      5-min Rain = 0
KCR2 132230Z 20010KT 14/M02 A3014 RMK A01 T01381018  RH  034%=      5-min Rain = 0
KCR2 132231Z 21007KT 14/M02 A3014 RMK A01 T01371015  RH  035%=      5-min Rain = 0
KCR2 132232Z 20008KT 14/M01 A3014 RMK A01 T01381011  RH  036%=      5-min Rain = 0
KCR2 132233Z 19008KT 14/M02 A3014 RMK A01 T01381015  RH  035%=      5-min Rain = 0
KCR2 132234Z 19011KT 14/M02 A3014 RMK A01 T01391015  RH  034%=      5-min Rain = 0
KCR2 132235Z 18010KT 14/M02 A3014 RMK A01 T01381017  RH  034%=      5-min Rain = 0
KCR2 132236Z 19009KT 14/M02 A3014 RMK A01 T01361022  RH  033%=      5-min Rain = 0
KCR2 132237Z 19009KT 14/M02 A3014 RMK A01 T01351019  RH  034%=      5-min Rain = 0
KCR2 132238Z 20011KT 14/M02 A3014 RMK A01 T01361016  RH  035%=      5-min Rain = 0
KCR2 132239Z 20011KT 14/M01 A3014 RMK A01 T01371014  RH  035%=      5-min Rain = 0
KCR2 132240Z 19010KT 14/M02 A3014 RMK A01 T01371016  RH  035%=      5-min Rain = 0
KCR2 132241Z 20008KT 14/M02 A3014 RMK A01 T01371018  RH  034%=      5-min Rain = 0
KCR2 132242Z 18006KT 14/M02 A3014 RMK A01 T01361018  RH  034%=      5-min Rain = 0
KCR2 132243Z 19006KT 14/M02 A3014 RMK A01 T01371016  RH  035%=      5-min Rain = 0
KCR2 132244Z 19006KT 14/M02 A3014 RMK A01 T01371019  RH  034%=      5-min Rain = 0
KCR2 132245Z 18006KT 14/M02 A3014 RMK A01 T01371018  RH  034%=      5-min Rain = 0
KCR2 132246Z 18009KT 14/M01 A3014 RMK A01 T01371009  RH  036%=      5-min Rain = 0
KCR2 132247Z 18012KT 14/M02 A3014 RMK A01 T01381015  RH  035%=      5-min Rain = 0
KCR2 132248Z 18010KT 14/M02 A3014 RMK A01 T01371017  RH  034%=      5-min Rain = 0
KCR2 132249Z 19008KT 14/M02 A3014 RMK A01 T01371016  RH  035%=      5-min Rain = 0
KCR2 132250Z 18009KT 14/M02 A3014 RMK A01 T01361020  RH  034%=      5-min Rain = 0
KCR2 132251Z 19009KT 14/M02 A3014 RMK A01 T01361019  RH  034%=      5-min Rain = 0
KCR2 132252Z 20009KT 14/M02 A3013 RMK A01 T01361019  RH  034%=      5-min Rain = 0
KCR2 132253Z 19009KT 14/M02 A3013 RMK A01 T01361015  RH  035%=      5-min Rain = 0
KCR2 132254Z 19009KT 14/M02 A3013 RMK A01 T01371018  RH  034%=      5-min Rain = 0
KCR2 132255Z 19007KT 14/M02 A3013 RMK A01 T01371020  RH  034%=      5-min Rain = 0
KCR2 132256Z 19007KT 14/M02 A3013 RMK A01 T01361017  RH  035%=      5-min Rain = 0
KCR2 132257Z 18006KT 14/M02 A3013 RMK A01 T01361020  RH  034%=      5-min Rain = 0
KCR2 132258Z 17007KT 14/M02 A3013 RMK A01 T01371021  RH  034%=      5-min Rain = 0
KCR2 132259Z 18009KT 14/M02 A3013 RMK A01 T01371018  RH  034%=      5-min Rain = 0
KCR2 132300Z 18007KT 14/M02 A3013 RMK A01 T01371018  RH  034%=      5-min Rain = 0
KCR2 132301Z 18010KT 14/M02 A3013 RMK A01 T01371016  RH  035%=      5-min Rain = 0
KCR2 132302Z 17010KT 14/M02 A3013 RMK A01 T01371019  RH  034%=      5-min Rain = 0
KCR2 132303Z 17009KT 14/M02 A3013 RMK A01 T01371018  RH  034%=      5-min Rain = 0
KCR2 132304Z 17008KT 14/M02 A3013 RMK A01 T01371016  RH  035%=      5-min Rain = 0
KCR2 132305Z 18005KT 14/M02 A3013 RMK A01 T01371018  RH  034%=      5-min Rain = 0
KCR2 132306Z 15005KT 14/M02 A3013 RMK A01 T01371018  RH  034%=      5-min Rain = 0
KCR2 132307Z 14010KT 14/M02 A3013 RMK A01 T01371015  RH  035%=      5-min Rain = 0
KCR2 132308Z 16008KT 14/M01 A3013 RMK A01 T01371010  RH  036%=      5-min Rain = 0
KCR2 132309Z 16009KT 14/M01 A3013 RMK A01 T01381007  RH  037%=      5-min Rain = 0
KCR2 132310Z 16008KT 14/M02 A3013 RMK A01 T01381015  RH  035%=      5-min Rain = 0
KCR2 132311Z 16006KT 14/M02 A3013 RMK A01 T01371022  RH  033%=      5-min Rain = 0
KCR2 132312Z 16005KT 14/M02 A3013 RMK A01 T01371020  RH  034%=      5-min Rain = 0
KCR2 132313Z 16005KT 14/M02 A3013 RMK A01 T01371018  RH  034%=      5-min Rain = 0
KCR2 132314Z 15007KT 14/M02 A3013 RMK A01 T01371015  RH  035%=      5-min Rain = 0
KCR2 132315Z 14008KT 14/M02 A3013 RMK A01 T01371015  RH  035%=      5-min Rain = 0
KCR2 132316Z 14009KT 14/M02 A3013 RMK A01 T01371015  RH  035%=      5-min Rain = 0
KCR2 132317Z 14008KT 14/M02 A3013 RMK A01 T01371016  RH  035%=      5-min Rain = 0
KCR2 132318Z 15010KT 14/M02 A3013 RMK A01 T01371018  RH  034%=      5-min Rain = 0
KCR2 132319Z 15010KT 14/M02 A3013 RMK A01 T01361017  RH  035%=      5-min Rain = 0
KCR2 132320Z 16008KT 14/M02 A3013 RMK A01 T01361018  RH  034%=      5-min Rain = 0
KCR2 132321Z 15008KT 14/M02 A3013 RMK A01 T01361015  RH  035%=      5-min Rain = 0
KCR2 132322Z 15007KT 14/M02 A3013 RMK A01 T01361015  RH  035%=      5-min Rain = 0
KCR2 132323Z 16009KT 14/M02 A3013 RMK A01 T01361016  RH  035%=      5-min Rain = 0
KCR2 132324Z 17007KT 14/M02 A3013 RMK A01 T01371020  RH  034%=      5-min Rain = 0
KCR2 132325Z 17006KT 14/M02 A3013 RMK A01 T01361023  RH  033%=      5-min Rain = 0
KCR2 132326Z 15008KT 14/M02 A3013 RMK A01 T01361016  RH  035%=      5-min Rain = 0
KCR2 132327Z 15007KT 14/M02 A3013 RMK A01 T01361023  RH  033%=      5-min Rain = 0
KCR2 132328Z 15008KT 14/M01 A3013 RMK A01 T01361014  RH  035%=      5-min Rain = 0
KCR2 132329Z 16008KT 14/M02 A3013 RMK A01 T01361019  RH  034%=      5-min Rain = 0
KCR2 132330Z 17009KT 14/M02 A3013 RMK A01 T01361015  RH  035%=      5-min Rain = 0
KCR2 132331Z 17009KT 14/M02 A3013 RMK A01 T01361019  RH  034%=      5-min Rain = 0
KCR2 132332Z 16008KT 14/M02 A3013 RMK A01 T01351021  RH  034%=      5-min Rain = 0
KCR2 132333Z 17009KT 14/M02 A3013 RMK A01 T01351020  RH  034%=      5-min Rain = 0
KCR2 132334Z 16008KT 14/M02 A3013 RMK A01 T01351017  RH  035%=      5-min Rain = 0
KCR2 132335Z 14008KT 14/M02 A3013 RMK A01 T01351015  RH  035%=      5-min Rain = 0
KCR2 132336Z 13007KT 14/M02 A3013 RMK A01 T01351018  RH  034%=      5-min Rain = 0
KCR2 132337Z 14008KT 14/M02 A3013 RMK A01 T01351020  RH  034%=      5-min Rain = 0
KCR2 132338Z 13009KT 14/M02 A3013 RMK A01 T01351017  RH  035%=      5-min Rain = 0
KCR2 132339Z 15011KT 14/M02 A3013 RMK A01 T01351016  RH  035%=      5-min Rain = 0
KCR2 132340Z 16010KT 14/M01 A3013 RMK A01 T01351013  RH  036%=      5-min Rain = 0
KCR2 132341Z 16008KT 14/M02 A3013 RMK A01 T01351020  RH  034%=      5-min Rain = 0
KCR2 132342Z 16008KT 14/M02 A3013 RMK A01 T01351022  RH  034%=      5-min Rain = 0
KCR2 132343Z 15009KT 14/M02 A3013 RMK A01 T01351018  RH  035%=      5-min Rain = 0
KCR2 132344Z 14010KT 14/M02 A3013 RMK A01 T01351020  RH  034%=      5-min Rain = 0
KCR2 132345Z 14009KT 14/M02 A3013 RMK A01 T01351018  RH  035%=      5-min Rain = 0
KCR2 132346Z 14008KT 14/M01 A3013 RMK A01 T01351013  RH  036%=      5-min Rain = 0
KCR2 132347Z 15008KT 14/M01 A3013 RMK A01 T01351014  RH  036%=      5-min Rain = 0
KCR2 132348Z 15008KT 14/M01 A3013 RMK A01 T01351011  RH  036%=      5-min Rain = 0
KCR2 132349Z 15009KT 13/M02 A3013 RMK A01 T01341019  RH  035%=      5-min Rain = 0
KCR2 132350Z 15007KT 13/M02 A3013 RMK A01 T01341020  RH  034%=      5-min Rain = 0
KCR2 132351Z 15009KT 13/M01 A3013 RMK A01 T01341009  RH  037%=      5-min Rain = 0
KCR2 132352Z 15008KT 13/M02 A3013 RMK A01 T01341015  RH  036%=      5-min Rain = 0
KCR2 132353Z 15008KT 13/M02 A3013 RMK A01 T01341017  RH  035%=      5-min Rain = 0
KCR2 132354Z 15008KT 13/M01 A3013 RMK A01 T01341013  RH  036%=      5-min Rain = 0
KCR2 132355Z 15007KT 13/M02 A3013 RMK A01 T01341018  RH  035%=      5-min Rain = 0
KCR2 132356Z 14006KT 13/M01 A3013 RMK A01 T01341010  RH  037%=      5-min Rain = 0
KCR2 132357Z 14007KT 13/M01 A3013 RMK A01 T01331007  RH  038%=      5-min Rain = 0
KCR2 132358Z 15006KT 13/M01 A3013 RMK A01 T01331010  RH  037%=      5-min Rain = 0
KCR2 132359Z 16007KT 13/M01 A3013 RMK A01 T01331013  RH  036%=      5-min Rain = 0
KCR2 140000Z 15006KT 13/M01 A3013 RMK A01 T01331012  RH  037%=      5-min Rain = 0
KCR2 140001Z 14008KT 13/M01 A3013 RMK A01 T01331010  RH  037%=      5-min Rain = 0
KCR2 140002Z 13009KT 13/M02 A3013 RMK A01 T01331015  RH  036%=      5-min Rain = 0
KCR2 140003Z 13008KT 13/M02 A3013 RMK A01 T01321016  RH  036%=      5-min Rain = 0
KCR2 140004Z 14007KT 13/M02 A3013 RMK A01 T01321019  RH  035%=      5-min Rain = 0
KCR2 140005Z 14006KT 13/M02 A3013 RMK A01 T01321015  RH  036%=      5-min Rain = 0
KCR2 140006Z 14008KT 13/M01 A3013 RMK A01 T01321012  RH  037%=      5-min Rain = 0
KCR2 140007Z 15010KT 13/M01 A3013 RMK A01 T01311011  RH  037%=      5-min Rain = 0
KCR2 140008Z 15010KT 13/M02 A3013 RMK A01 T01311018  RH  036%=      5-min Rain = 0
KCR2 140009Z 14009KT 13/M02 A3013 RMK A01 T01311015  RH  037%=      5-min Rain = 0
KCR2 140010Z 14009KT 13/M01 A3013 RMK A01 T01301014  RH  037%=      5-min Rain = 0
KCR2 140011Z 14007KT 13/M01 A3013 RMK A01 T01301012  RH  038%=      5-min Rain = 0
KCR2 140012Z 14009KT 13/M01 A3013 RMK A01 T01291010  RH  038%=      5-min Rain = 0
KCR2 140013Z 13010KT 13/M01 A3013 RMK A01 T01281013  RH  037%=      5-min Rain = 0
KCR2 140014Z 13009KT 13/M01 A3013 RMK A01 T01281012  RH  038%=      5-min Rain = 0
KCR2 140015Z 13008KT 13/M01 A3013 RMK A01 T01271011  RH  038%=      5-min Rain = 0
KCR2 140016Z 13009KT 13/M01 A3013 RMK A01 T01271008  RH  039%=      5-min Rain = 0
KCR2 140017Z 13008KT 13/M01 A3013 RMK A01 T01261008  RH  040%=      5-min Rain = 0
KCR2 140018Z 13008KT 13/M01 A3014 RMK A01 T01251007  RH  040%=      5-min Rain = 0
KCR2 140019Z 13008KT 13/M01 A3014 RMK A01 T01251010  RH  039%=      5-min Rain = 0
KCR2 140020Z 12006KT 12/M01 A3014 RMK A01 T01241007  RH  040%=      5-min Rain = 0
KCR2 140021Z 12006KT 12/M01 A3014 RMK A01 T01241008  RH  040%=      5-min Rain = 0
KCR2 140022Z 12007KT 12/M01 A3014 RMK A01 T01231006  RH  041%=      5-min Rain = 0
KCR2 140023Z 12007KT 12/M01 A3014 RMK A01 T01221008  RH  040%=      5-min Rain = 0
KCR2 140024Z 12007KT 12/M01 A3014 RMK A01 T01221007  RH  041%=      5-min Rain = 0
KCR2 140025Z 12007KT 12/M01 A3014 RMK A01 T01221008  RH  041%=      5-min Rain = 0
KCR2 140026Z 12007KT 12/M01 A3014 RMK A01 T01211006  RH  041%=      5-min Rain = 0
KCR2 140027Z 12007KT 12/M01 A3014 RMK A01 T01201006  RH  042%=      5-min Rain = 0
KCR2 140028Z 12007KT 12/M01 A3014 RMK A01 T01191005  RH  042%=      5-min Rain = 0
KCR2 140029Z 12007KT 12/M00 A3014 RMK A01 T01171003  RH  043%=      5-min Rain = 0
KCR2 140030Z 12007KT 12/M00 A3014 RMK A01 T01161004  RH  043%=      5-min Rain = 0
KCR2 140031Z 12007KT 12/M00 A3014 RMK A01 T01171004  RH  043%=      5-min Rain = 0
KCR2 140032Z 12007KT 12/M00 A3014 RMK A01 T01161003  RH  044%=      5-min Rain = 0
KCR2 140033Z 12007KT 12/M00 A3014 RMK A01 T01151004  RH  044%=      5-min Rain = 0
KCR2 140034Z 12007KT 12/M00 A3014 RMK A01 T01151002  RH  044%=      5-min Rain = 0
KCR2 140035Z 12007KT 11/M00 A3014 RMK A01 T01141003  RH  044%=      5-min Rain = 0
KCR2 140036Z 12007KT 11/M00 A3014 RMK A01 T01131004  RH  044%=      5-min Rain = 0
KCR2 140037Z 12007KT 11/M00 A3014 RMK A01 T01131004  RH  044%=      5-min Rain = 0
KCR2 140038Z 12007KT 11/M00 A3014 RMK A01 T01131003  RH  045%=      5-min Rain = 0
KCR2 140039Z 12007KT 11/M00 A3014 RMK A01 T01121002  RH  045%=      5-min Rain = 0
KCR2 140040Z 12007KT 11/M00 A3014 RMK A01 T01111001  RH  046%=      5-min Rain = 0
KCR2 140041Z 12006KT 11/00 A3014 RMK A01 T01100000  RH  047%=      5-min Rain = 0
KCR2 140042Z 12007KT 11/00 A3014 RMK A01 T01080001  RH  048%=      5-min Rain = 0
KCR2 140043Z 12007KT 11/00 A3014 RMK A01 T01070002  RH  048%=      5-min Rain = 0
KCR2 140044Z 12007KT 11/00 A3014 RMK A01 T01060002  RH  048%=      5-min Rain = 0
KCR2 140045Z 12007KT 11/00 A3014 RMK A01 T01060002  RH  049%=      5-min Rain = 0
KCR2 140046Z 12007KT 11/00 A3014 RMK A01 T01050002  RH  049%=      5-min Rain = 0
KCR2 140047Z 12007KT 11/00 A3014 RMK A01 T01050003  RH  049%=      5-min Rain = 0
KCR2 140048Z 12007KT 10/00 A3014 RMK A01 T01040003  RH  049%=      5-min Rain = 0
KCR2 140049Z 12007KT 10/00 A3014 RMK A01 T01040003  RH  050%=      5-min Rain = 0
KCR2 140050Z 12007KT 10/00 A3015 RMK A01 T01030003  RH  050%=      5-min Rain = 0
KCR2 140051Z 12006KT 10/00 A3015 RMK A01 T01030003  RH  050%=      5-min Rain = 0
KCR2 140052Z 12007KT 10/00 A3015 RMK A01 T01020003  RH  050%=      5-min Rain = 0
KCR2 140053Z 12007KT 10/00 A3015 RMK A01 T01010003  RH  051%=      5-min Rain = 0
KCR2 140054Z 12007KT 10/00 A3015 RMK A01 T01010002  RH  050%=      5-min Rain = 0
KCR2 140055Z 12007KT 10/00 A3015 RMK A01 T01000003  RH  051%=      5-min Rain = 0
KCR2 140056Z 12007KT 10/00 A3015 RMK A01 T01000003  RH  051%=      5-min Rain = 0
KCR2 140057Z 12006KT 10/00 A3015 RMK A01 T00990002  RH  051%=      5-min Rain = 0
KCR2 140058Z 12006KT 10/00 A3015 RMK A01 T00990003  RH  051%=      5-min Rain = 0
KCR2 140059Z 12006KT 10/00 A3015 RMK A01 T00980003  RH  051%=      5-min Rain = 0
KCR2 140100Z 12006KT 10/00 A3015 RMK A01 T00980003  RH  052%=      5-min Rain = 0
KCR2 140101Z 12006KT 10/00 A3015 RMK A01 T00970003  RH  052%=      5-min Rain = 0
KCR2 140102Z 12006KT 10/00 A3015 RMK A01 T00960004  RH  052%=      5-min Rain = 0
KCR2 140103Z 12006KT 10/00 A3015 RMK A01 T00960004  RH  053%=      5-min Rain = 0
KCR2 140104Z 12006KT 10/00 A3015 RMK A01 T00950004  RH  053%=      5-min Rain = 0
KCR2 140105Z 12006KT 09/00 A3015 RMK A01 T00940004  RH  054%=      5-min Rain = 0
KCR2 140106Z 12006KT 09/01 A3015 RMK A01 T00930005  RH  054%=      5-min Rain = 0
KCR2 140107Z 12006KT 09/01 A3015 RMK A01 T00920005  RH  054%=      5-min Rain = 0
KCR2 140108Z 12006KT 09/01 A3015 RMK A01 T00920005  RH  054%=      5-min Rain = 0
KCR2 140109Z 12006KT 09/01 A3015 RMK A01 T00920006  RH  055%=      5-min Rain = 0
KCR2 140110Z 12006KT 09/01 A3015 RMK A01 T00920005  RH  055%=      5-min Rain = 0
KCR2 140111Z 12007KT 09/01 A3015 RMK A01 T00910005  RH  055%=      5-min Rain = 0
KCR2 140112Z 12007KT 09/01 A3015 RMK A01 T00910005  RH  055%=      5-min Rain = 0
KCR2 140113Z 12007KT 09/01 A3016 RMK A01 T00910005  RH  055%=      5-min Rain = 0
KCR2 140114Z 12007KT 09/01 A3016 RMK A01 T00900005  RH  055%=      5-min Rain = 0
KCR2 140115Z 12007KT 09/00 A3016 RMK A01 T00910003  RH  054%=      5-min Rain = 0
KCR2 140116Z 12007KT 09/00 A3016 RMK A01 T00910004  RH  054%=      5-min Rain = 0
KCR2 140117Z 12007KT 09/01 A3016 RMK A01 T00910005  RH  055%=      5-min Rain = 0
KCR2 140118Z 12007KT 09/00 A3016 RMK A01 T00900004  RH  055%=      5-min Rain = 0
KCR2 140119Z 12007KT 09/00 A3016 RMK A01 T00890004  RH  055%=      5-min Rain = 0
KCR2 140120Z 12007KT 09/01 A3016 RMK A01 T00890005  RH  055%=      5-min Rain = 0
KCR2 140121Z 13007KT 09/01 A3016 RMK A01 T00880005  RH  056%=      5-min Rain = 0
KCR2 140122Z 13007KT 09/01 A3016 RMK A01 T00880006  RH  056%=      5-min Rain = 0
KCR2 140123Z 13007KT 09/01 A3016 RMK A01 T00870006  RH  057%=      5-min Rain = 0
KCR2 140124Z 13007KT 09/01 A3016 RMK A01 T00870006  RH  057%=      5-min Rain = 0
KCR2 140125Z 13007KT 09/01 A3016 RMK A01 T00870005  RH  056%=      5-min Rain = 0
KCR2 140126Z 13007KT 09/01 A3016 RMK A01 T00870006  RH  057%=      5-min Rain = 0
KCR2 140127Z 13007KT 09/01 A3016 RMK A01 T00860005  RH  057%=      5-min Rain = 0
KCR2 140128Z 13007KT 09/01 A3016 RMK A01 T00860005  RH  057%=      5-min Rain = 0
KCR2 140129Z 13007KT 09/01 A3016 RMK A01 T00860006  RH  057%=      5-min Rain = 0
KCR2 140130Z 13007KT 09/01 A3016 RMK A01 T00850006  RH  057%=      5-min Rain = 0
KCR2 140131Z 13007KT 09/01 A3016 RMK A01 T00850005  RH  057%=      5-min Rain = 0
KCR2 140132Z 13007KT 09/00 A3016 RMK A01 T00850004  RH  057%=      5-min Rain = 0
KCR2 140133Z 13007KT 09/00 A3016 RMK A01 T00850004  RH  057%=      5-min Rain = 0
KCR2 140134Z 13007KT 09/00 A3016 RMK A01 T00860003  RH  056%=      5-min Rain = 0
KCR2 140135Z 13007KT 09/00 A3016 RMK A01 T00860003  RH  056%=      5-min Rain = 0
KCR2 140136Z 13007KT 09/00 A3016 RMK A01 T00860004  RH  056%=      5-min Rain = 0
KCR2 140137Z 14007KT 09/00 A3016 RMK A01 T00860004  RH  056%=      5-min Rain = 0
KCR2 140138Z 14007KT 09/01 A3016 RMK A01 T00850005  RH  057%=      5-min Rain = 0
KCR2 140139Z 14006KT 09/01 A3016 RMK A01 T00850005  RH  057%=      5-min Rain = 0
KCR2 140140Z 14006KT 08/01 A3016 RMK A01 T00840005  RH  057%=      5-min Rain = 0
KCR2 140141Z 13006KT 08/01 A3016 RMK A01 T00840006  RH  058%=      5-min Rain = 0
KCR2 140142Z 13006KT 08/01 A3016 RMK A01 T00830006  RH  058%=      5-min Rain = 0
KCR2 140143Z 14006KT 08/01 A3017 RMK A01 T00820005  RH  058%=      5-min Rain = 0
KCR2 140144Z 13006KT 08/01 A3017 RMK A01 T00820005  RH  058%=      5-min Rain = 0
KCR2 140145Z 13006KT 08/01 A3017 RMK A01 T00810005  RH  059%=      5-min Rain = 0
KCR2 140146Z 13006KT 08/00 A3017 RMK A01 T00810004  RH  059%=      5-min Rain = 0
KCR2 140147Z 14006KT 08/00 A3017 RMK A01 T00800004  RH  059%=      5-min Rain = 0
KCR2 140148Z 14006KT 08/01 A3017 RMK A01 T00800005  RH  059%=      5-min Rain = 0
KCR2 140149Z 14006KT 08/01 A3017 RMK A01 T00800005  RH  059%=      5-min Rain = 0
KCR2 140150Z 14006KT 08/01 A3017 RMK A01 T00790006  RH  060%=      5-min Rain = 0
KCR2 140151Z 14006KT 08/01 A3017 RMK A01 T00790006  RH  060%=      5-min Rain = 0
KCR2 140152Z 14007KT 08/01 A3017 RMK A01 T00790006  RH  060%=      5-min Rain = 0
KCR2 140153Z 14006KT 08/01 A3017 RMK A01 T00780005  RH  060%=      5-min Rain = 0
KCR2 140154Z 14006KT 08/01 A3017 RMK A01 T00780006  RH  060%=      5-min Rain = 0
KCR2 140155Z 14006KT 08/01 A3017 RMK A01 T00780005  RH  060%=      5-min Rain = 0
KCR2 140156Z 14006KT 08/01 A3017 RMK A01 T00780005  RH  060%=      5-min Rain = 0
KCR2 140157Z 14006KT 08/01 A3017 RMK A01 T00780005  RH  060%=      5-min Rain = 0
KCR2 140158Z 14006KT 08/01 A3017 RMK A01 T00770005  RH  060%=      5-min Rain = 0
KCR2 140159Z 14006KT 08/01 A3017 RMK A01 T00770005  RH  060%=      5-min Rain = 0
KCR2 140200Z 14006KT 08/01 A3017 RMK A01 T00770006  RH  061%=      5-min Rain = 0
KCR2 140201Z 14006KT 08/01 A3017 RMK A01 T00760007  RH  062%=      5-min Rain = 0
KCR2 140202Z 14006KT 07/01 A3017 RMK A01 T00740007  RH  062%=      5-min Rain = 0
KCR2 140203Z 14006KT 07/01 A3017 RMK A01 T00730007  RH  063%=      5-min Rain = 0
KCR2 140204Z 14006KT 07/01 A3017 RMK A01 T00730007  RH  063%=      5-min Rain = 0
KCR2 140205Z 14006KT 07/01 A3017 RMK A01 T00720007  RH  063%=      5-min Rain = 0
KCR2 140206Z 14006KT 07/01 A3017 RMK A01 T00720007  RH  063%=      5-min Rain = 0
KCR2 140207Z 14006KT 07/01 A3017 RMK A01 T00720007  RH  063%=      5-min Rain = 0
KCR2 140208Z 15006KT 07/01 A3017 RMK A01 T00720007  RH  063%=      5-min Rain = 0
KCR2 140209Z 15006KT 07/01 A3017 RMK A01 T00720007  RH  063%=      5-min Rain = 0
KCR2 140210Z 15007KT 07/01 A3017 RMK A01 T00720007  RH  063%=      5-min Rain = 0
KCR2 140211Z 15007KT 07/01 A3017 RMK A01 T00730006  RH  063%=      5-min Rain = 0
KCR2 140212Z 14007KT 07/01 A3017 RMK A01 T00740006  RH  062%=      5-min Rain = 0
KCR2 140213Z 14007KT 08/01 A3017 RMK A01 T00750005  RH  062%=      5-min Rain = 0
KCR2 140214Z 14007KT 08/01 A3017 RMK A01 T00750006  RH  061%=      5-min Rain = 0
KCR2 140215Z 13006KT 08/01 A3017 RMK A01 T00750005  RH  061%=      5-min Rain = 0
KCR2 140216Z 08009KT 07/01 A3018 RMK A01 T00730007  RH  063%=      5-min Rain = 0
KCR2 140217Z 08011KT 07/01 A3018 RMK A01 T00670007  RH  065%=      5-min Rain = 0
KCR2 140218Z 09011KT 07/01 A3018 RMK A01 T00660007  RH  066%=      5-min Rain = 0
KCR2 140219Z 10009KT 07/01 A3018 RMK A01 T00670008  RH  066%=      5-min Rain = 0
KCR2 140220Z 10011KT 07/01 A3018 RMK A01 T00680010  RH  066%=      5-min Rain = 0
KCR2 140221Z 10013KT 07/01 A3018 RMK A01 T00700012  RH  067%=      5-min Rain = 0
KCR2 140222Z 09012KT 07/01 A3018 RMK A01 T00710013  RH  067%=      5-min Rain = 0
KCR2 140223Z 10014KT 07/01 A3018 RMK A01 T00710013  RH  066%=      5-min Rain = 0
KCR2 140224Z 10013KT 07/01 A3018 RMK A01 T00730013  RH  066%=      5-min Rain = 0
KCR2 140225Z 10012KT 07/02 A3018 RMK A01 T00740015  RH  066%=      5-min Rain = 0
KCR2 140226Z 10012KT 07/02 A3019 RMK A01 T00730015  RH  066%=      5-min Rain = 0
KCR2 140227Z 10010KT 07/02 A3019 RMK A01 T00730015  RH  067%=      5-min Rain = 0
KCR2 140228Z 10010KT 07/02 A3019 RMK A01 T00720015  RH  067%=      5-min Rain = 0
KCR2 140229Z 10010KT 07/02 A3019 RMK A01 T00710015  RH  067%=      5-min Rain = 0
KCR2 140230Z 10010KT 07/02 A3019 RMK A01 T00710016  RH  068%=      5-min Rain = 0
KCR2 140231Z 11009KT 07/02 A3019 RMK A01 T00710016  RH  068%=      5-min Rain = 0
KCR2 140232Z 11010KT 07/02 A3019 RMK A01 T00700016  RH  068%=      5-min Rain = 0
KCR2 140233Z 10010KT 07/02 A3019 RMK A01 T00700016  RH  069%=      5-min Rain = 0
KCR2 140234Z 10010KT 07/02 A3019 RMK A01 T00700017  RH  069%=      5-min Rain = 0
KCR2 140235Z 10010KT 07/02 A3019 RMK A01 T00700017  RH  069%=      5-min Rain = 0
KCR2 140236Z 10010KT 07/02 A3019 RMK A01 T00700017  RH  069%=      5-min Rain = 0
KCR2 140237Z 10011KT 07/02 A3019 RMK A01 T00700018  RH  069%=      5-min Rain = 0
KCR2 140238Z 10010KT 07/02 A3019 RMK A01 T00700018  RH  070%=      5-min Rain = 0
KCR2 140239Z 10010KT 07/02 A302 RMK A01 T00700019  RH  070%=      5-min Rain = 0
KCR2 140240Z 10010KT 07/02 A302 RMK A01 T00690019  RH  070%=      5-min Rain = 0
KCR2 140241Z 10010KT 07/02 A302 RMK A01 T00690019  RH  070%=      5-min Rain = 0
KCR2 140242Z 10011KT 07/02 A302 RMK A01 T00700020  RH  070%=      5-min Rain = 0
KCR2 140243Z 10010KT 07/02 A302 RMK A01 T00690019  RH  070%=      5-min Rain = 0
KCR2 140244Z 10010KT 07/02 A302 RMK A01 T00690020  RH  071%=      5-min Rain = 0
KCR2 140245Z 10010KT 07/02 A302 RMK A01 T00680020  RH  071%=      5-min Rain = 0
KCR2 140246Z 10010KT 07/02 A302 RMK A01 T00680019  RH  071%=      5-min Rain = 0
KCR2 140247Z 10011KT 07/02 A302 RMK A01 T00690020  RH  071%=      5-min Rain = 0
KCR2 140248Z 10011KT 07/02 A302 RMK A01 T00680020  RH  071%=      5-min Rain = 0
KCR2 140249Z 10011KT 07/02 A302 RMK A01 T00680020  RH  071%=      5-min Rain = 0
KCR2 140250Z 10012KT 07/02 A302 RMK A01 T00680019  RH  071%=      5-min Rain = 0
KCR2 140251Z 10012KT 07/02 A302 RMK A01 T00680019  RH  071%=      5-min Rain = 0
KCR2 140252Z 10012KT 07/02 A302 RMK A01 T00680020  RH  071%=      5-min Rain = 0
KCR2 140253Z 10012KT 07/02 A302 RMK A01 T00680020  RH  072%=      5-min Rain = 0
KCR2 140254Z 11014KT 07/02 A302 RMK A01 T00680020  RH  071%=      5-min Rain = 0
KCR2 140255Z 11012KT 07/02 A302 RMK A01 T00680019  RH  071%=      5-min Rain = 0
KCR2 140256Z 11013KT 07/02 A302 RMK A01 T00680020  RH  071%=      5-min Rain = 0
KCR2 140257Z 11013KT 07/02 A302 RMK A01 T00680020  RH  072%=      5-min Rain = 0
KCR2 140258Z 11013G18KT 07/02 A302 RMK A01 T00670020  RH  072%=      5-min Rain = 0
KCR2 140259Z 11015KT 07/02 A302 RMK A01 T00670020  RH  072%=      5-min Rain = 0
KCR2 140300Z 11014KT 07/02 A302 RMK A01 T00670020  RH  072%=      5-min Rain = 0
KCR2 140301Z 11016KT 07/02 A302 RMK A01 T00670020  RH  072%=      5-min Rain = 0
KCR2 140302Z 11014KT 07/02 A302 RMK A01 T00680019  RH  071%=      5-min Rain = 0
KCR2 140303Z 11015KT 07/02 A302 RMK A01 T00680019  RH  071%=      5-min Rain = 0
KCR2 140304Z 11015KT 07/02 A302 RMK A01 T00680020  RH  071%=      5-min Rain = 0
KCR2 140305Z 11013KT 07/02 A302 RMK A01 T00680020  RH  072%=      5-min Rain = 0
KCR2 140306Z 11014KT 07/02 A302 RMK A01 T00670020  RH  072%=      5-min Rain = 0
KCR2 140307Z 11014KT 07/02 A302 RMK A01 T00670020  RH  072%=      5-min Rain = 0
KCR2 140308Z 11013KT 07/02 A302 RMK A01 T00660020  RH  072%=      5-min Rain = 0
KCR2 140309Z 11014KT 07/02 A3021 RMK A01 T00660019  RH  072%=      5-min Rain = 0
KCR2 140310Z 11013KT 07/02 A3021 RMK A01 T00660020  RH  072%=      5-min Rain = 0
KCR2 140311Z 11013KT 07/02 A3021 RMK A01 T00650020  RH  073%=      5-min Rain = 0
KCR2 140312Z 11012KT 07/02 A3021 RMK A01 T00650020  RH  073%=      5-min Rain = 0
KCR2 140313Z 10013KT 06/02 A3021 RMK A01 T00640020  RH  073%=      5-min Rain = 0
KCR2 140314Z 11013KT 06/02 A3021 RMK A01 T00640020  RH  074%=      5-min Rain = 0
KCR2 140315Z 10012KT 06/02 A3021 RMK A01 T00640020  RH  074%=      5-min Rain = 0
KCR2 140316Z 10013KT 06/02 A3021 RMK A01 T00630020  RH  074%=      5-min Rain = 0
KCR2 140317Z 10012KT 06/02 A3021 RMK A01 T00630020  RH  074%=      5-min Rain = 0
KCR2 140318Z 10010KT 06/02 A3021 RMK A01 T00620020  RH  074%=      5-min Rain = 0
KCR2 140319Z 09012KT 06/02 A3021 RMK A01 T00610020  RH  075%=      5-min Rain = 0
KCR2 140320Z 09012KT 06/02 A3021 RMK A01 T00610020  RH  075%=      5-min Rain = 0
KCR2 140321Z 09012KT 06/02 A3021 RMK A01 T00610020  RH  075%=      5-min Rain = 0
KCR2 140322Z 09012KT 06/02 A3022 RMK A01 T00610020  RH  075%=      5-min Rain = 0
KCR2 140323Z 10011KT 06/02 A3022 RMK A01 T00610020  RH  075%=      5-min Rain = 0
KCR2 140324Z 10011KT 06/02 A3022 RMK A01 T00600020  RH  075%=      5-min Rain = 0
KCR2 140325Z 10010KT 06/02 A3022 RMK A01 T00600020  RH  076%=      5-min Rain = 0
KCR2 140326Z 10012KT 06/02 A3022 RMK A01 T00600020  RH  076%=      5-min Rain = 0
KCR2 140327Z 10011KT 06/02 A3022 RMK A01 T00590020  RH  076%=      5-min Rain = 0
KCR2 140328Z 10012KT 06/02 A3022 RMK A01 T00600020  RH  076%=      5-min Rain = 0
KCR2 140329Z 10010KT 06/02 A3022 RMK A01 T00590019  RH  076%=      5-min Rain = 0
KCR2 140330Z 10011KT 06/02 A3022 RMK A01 T00590020  RH  076%=      5-min Rain = 0
KCR2 140331Z 10010KT 06/02 A3022 RMK A01 T00580020  RH  076%=      5-min Rain = 0
KCR2 140332Z 10010KT 06/02 A3022 RMK A01 T00570020  RH  077%=      5-min Rain = 0
KCR2 140333Z 10010KT 06/02 A3022 RMK A01 T00570020  RH  077%=      5-min Rain = 0
KCR2 140334Z 10011KT 06/02 A3022 RMK A01 T00570020  RH  077%=      5-min Rain = 0
KCR2 140335Z 10010KT 06/02 A3022 RMK A01 T00560019  RH  077%=      5-min Rain = 0
KCR2 140336Z 10011KT 06/02 A3022 RMK A01 T00570020  RH  077%=      5-min Rain = 0
KCR2 140337Z 10012KT 06/02 A3022 RMK A01 T00560020  RH  077%=      5-min Rain = 0
KCR2 140338Z 10011KT 06/02 A3022 RMK A01 T00560019  RH  077%=      5-min Rain = 0
KCR2 140339Z 09011KT 06/02 A3022 RMK A01 T00560019  RH  077%=      5-min Rain = 0
KCR2 140340Z 10011KT 06/02 A3022 RMK A01 T00560019  RH  077%=      5-min Rain = 0
KCR2 140341Z 10011KT 06/02 A3022 RMK A01 T00560019  RH  077%=      5-min Rain = 0
KCR2 140342Z 09011KT 06/02 A3022 RMK A01 T00550019  RH  078%=      5-min Rain = 0
KCR2 140343Z 10011KT 06/02 A3022 RMK A01 T00550019  RH  078%=      5-min Rain = 0
KCR2 140344Z 10011KT 05/02 A3022 RMK A01 T00540019  RH  078%=      5-min Rain = 0
KCR2 140345Z 10012KT 05/02 A3022 RMK A01 T00540019  RH  078%=      5-min Rain = 0
KCR2 140346Z 10013KT 05/02 A3022 RMK A01 T00540019  RH  078%=      5-min Rain = 0
KCR2 140347Z 10013KT 05/02 A3022 RMK A01 T00540018  RH  078%=      5-min Rain = 0
KCR2 140348Z 10012KT 05/02 A3022 RMK A01 T00540018  RH  078%=      5-min Rain = 0
KCR2 140349Z 10013KT 05/02 A3022 RMK A01 T00540018  RH  078%=      5-min Rain = 0
KCR2 140350Z 09011KT 05/02 A3022 RMK A01 T00540018  RH  078%=      5-min Rain = 0
KCR2 140351Z 09011KT 05/02 A3022 RMK A01 T00530018  RH  078%=      5-min Rain = 0
KCR2 140352Z 09011KT 05/02 A3022 RMK A01 T00530018  RH  079%=      5-min Rain = 0
KCR2 140353Z 09012KT 05/02 A3023 RMK A01 T00530018  RH  079%=      5-min Rain = 0
KCR2 140354Z 10012KT 05/02 A3023 RMK A01 T00520018  RH  078%=      5-min Rain = 0
KCR2 140355Z 09012KT 05/02 A3023 RMK A01 T00520018  RH  079%=      5-min Rain = 0
KCR2 140356Z 09011KT 05/02 A3023 RMK A01 T00520018  RH  079%=      5-min Rain = 0
KCR2 140357Z 09010KT 05/02 A3023 RMK A01 T00520018  RH  079%=      5-min Rain = 0
KCR2 140358Z 09012KT 05/02 A3023 RMK A01 T00510018  RH  079%=      5-min Rain = 0
KCR2 140359Z 09011KT 05/02 A3023 RMK A01 T00510018  RH  079%=      5-min Rain = 0
KCR2 140400Z 09012KT 05/02 A3023 RMK A01 T00510018  RH  079%=      5-min Rain = 0
KCR2 140401Z 10012KT 05/02 A3023 RMK A01 T00510018  RH  079%=      5-min Rain = 0
KCR2 140402Z 09013KT 05/02 A3023 RMK A01 T00510018  RH  079%=      5-min Rain = 0
KCR2 140403Z 09011KT 05/02 A3023 RMK A01 T00500018  RH  079%=      5-min Rain = 0
KCR2 140404Z 09011KT 05/02 A3023 RMK A01 T00500018  RH  080%=      5-min Rain = 0
KCR2 140405Z 09012KT 05/02 A3023 RMK A01 T00490018  RH  080%=      5-min Rain = 0
KCR2 140406Z 09012KT 05/02 A3023 RMK A01 T00490018  RH  080%=      5-min Rain = 0
KCR2 140407Z 09013KT 05/02 A3023 RMK A01 T00490017  RH  080%=      5-min Rain = 0
KCR2 140408Z 09012KT 05/02 A3023 RMK A01 T00490017  RH  080%=      5-min Rain = 0
KCR2 140409Z 09012KT 05/02 A3023 RMK A01 T00490017  RH  080%=      5-min Rain = 0
KCR2 140410Z 09012KT 05/02 A3023 RMK A01 T00490017  RH  080%=      5-min Rain = 0
KCR2 140411Z 09013KT 05/02 A3023 RMK A01 T00490017  RH  080%=      5-min Rain = 0
KCR2 140412Z 09013KT 05/02 A3023 RMK A01 T00490016  RH  080%=      5-min Rain = 0
KCR2 140413Z 09013KT 05/02 A3023 RMK A01 T00490016  RH  080%=      5-min Rain = 0
KCR2 140414Z 09013KT 05/02 A3023 RMK A01 T00490017  RH  080%=      5-min Rain = 0
KCR2 140415Z 09014KT 05/02 A3023 RMK A01 T00480016  RH  080%=      5-min Rain = 0
KCR2 140416Z 09012KT 05/02 A3023 RMK A01 T00480016  RH  080%=      5-min Rain = 0
KCR2 140417Z 09011KT 05/02 A3024 RMK A01 T00480016  RH  080%=      5-min Rain = 0
KCR2 140418Z 09011KT 05/02 A3024 RMK A01 T00470016  RH  080%=      5-min Rain = 0
KCR2 140419Z 09012KT 05/02 A3024 RMK A01 T00470016  RH  080%=      5-min Rain = 0
KCR2 140420Z 09012KT 05/02 A3024 RMK A01 T00460015  RH  080%=      5-min Rain = 0
KCR2 140421Z 09013KT 05/02 A3024 RMK A01 T00460016  RH  080%=      5-min Rain = 0
KCR2 140422Z 09012KT 05/02 A3024 RMK A01 T00460015  RH  080%=      5-min Rain = 0
KCR2 140423Z 09013KT 05/02 A3024 RMK A01 T00460015  RH  080%=      5-min Rain = 0
KCR2 140424Z 09013KT 05/02 A3024 RMK A01 T00460015  RH  080%=      5-min Rain = 0
KCR2 140425Z 09013KT 05/02 A3024 RMK A01 T00460015  RH  080%=      5-min Rain = 0
KCR2 140426Z 09014KT 05/01 A3024 RMK A01 T00460014  RH  080%=      5-min Rain = 0
KCR2 140427Z 09014KT 05/01 A3024 RMK A01 T00460014  RH  080%=      5-min Rain = 0
KCR2 140428Z 09014KT 05/01 A3024 RMK A01 T00460014  RH  080%=      5-min Rain = 0
KCR2 140429Z 10014KT 05/01 A3024 RMK A01 T00450014  RH  080%=      5-min Rain = 0
KCR2 140430Z 10015KT 05/01 A3024 RMK A01 T00460013  RH  080%=      5-min Rain = 0
KCR2 140431Z 10014KT 05/01 A3024 RMK A01 T00460013  RH  079%=      5-min Rain = 0
KCR2 140432Z 10015KT 05/01 A3024 RMK A01 T00450013  RH  079%=      5-min Rain = 0
KCR2 140433Z 10014KT 05/01 A3024 RMK A01 T00460013  RH  079%=      5-min Rain = 0
KCR2 140434Z 10013KT 05/01 A3024 RMK A01 T00450013  RH  080%=      5-min Rain = 0
KCR2 140435Z 09014KT 05/01 A3024 RMK A01 T00450013  RH  080%=      5-min Rain = 0
KCR2 140436Z 09016KT 05/01 A3024 RMK A01 T00450013  RH  080%=      5-min Rain = 0
KCR2 140437Z 10014KT 05/01 A3024 RMK A01 T00450012  RH  079%=      5-min Rain = 0
KCR2 140438Z 09014KT 05/01 A3024 RMK A01 T00450013  RH  080%=      5-min Rain = 0
KCR2 140439Z 09014KT 04/01 A3024 RMK A01 T00440013  RH  080%=      5-min Rain = 0
KCR2 140440Z 10014KT 04/01 A3024 RMK A01 T00440012  RH  080%=      5-min Rain = 0
KCR2 140441Z 09012KT 04/01 A3024 RMK A01 T00440013  RH  080%=      5-min Rain = 0
KCR2 140442Z 10012KT 04/01 A3024 RMK A01 T00430012  RH  080%=      5-min Rain = 0
KCR2 140443Z 09012KT 04/01 A3024 RMK A01 T00420012  RH  081%=      5-min Rain = 0
KCR2 140444Z 10013KT 04/01 A3024 RMK A01 T00420012  RH  081%=      5-min Rain = 0
KCR2 140445Z 10012KT 04/01 A3024 RMK A01 T00420012  RH  081%=      5-min Rain = 0
KCR2 140446Z 10012KT 04/01 A3024 RMK A01 T00420012  RH  081%=      5-min Rain = 0
KCR2 140447Z 09013KT 04/01 A3024 RMK A01 T00410012  RH  082%=      5-min Rain = 0
KCR2 140448Z 09013KT 04/01 A3024 RMK A01 T00410013  RH  082%=      5-min Rain = 0
KCR2 140449Z 10013KT 04/01 A3024 RMK A01 T00410012  RH  082%=      5-min Rain = 0
KCR2 140450Z 10015KT 04/01 A3024 RMK A01 T00410012  RH  082%=      5-min Rain = 0
KCR2 140451Z 10015KT 04/01 A3024 RMK A01 T00410012  RH  081%=      5-min Rain = 0
KCR2 140452Z 10013KT 04/01 A3024 RMK A01 T00410012  RH  081%=      5-min Rain = 0
KCR2 140453Z 10015KT 04/01 A3024 RMK A01 T00410012  RH  081%=      5-min Rain = 0
KCR2 140454Z 10014KT 04/01 A3024 RMK A01 T00410012  RH  081%=      5-min Rain = 0
KCR2 140455Z 10014KT 04/01 A3024 RMK A01 T00410011  RH  081%=      5-min Rain = 0
KCR2 140456Z 11015KT 04/01 A3024 RMK A01 T00410012  RH  081%=      5-min Rain = 0
KCR2 140457Z 10015KT 04/01 A3024 RMK A01 T00410012  RH  081%=      5-min Rain = 0
KCR2 140458Z 10014KT 04/01 A3024 RMK A01 T00410012  RH  081%=      5-min Rain = 0
KCR2 140459Z 10014KT 04/01 A3024 RMK A01 T00410012  RH  081%=      5-min Rain = 0
KCR2 140500Z 10013KT 04/01 A3024 RMK A01 T00400012  RH  082%=      5-min Rain = 0
KCR2 140501Z 10013KT 04/01 A3024 RMK A01 T00400012  RH  082%=      5-min Rain = 0
KCR2 140502Z 10013KT 04/01 A3024 RMK A01 T00400012  RH  082%=      5-min Rain = 0
KCR2 140503Z 10014KT 04/01 A3024 RMK A01 T00400012  RH  082%=      5-min Rain = 0
KCR2 140504Z 10012KT 04/01 A3024 RMK A01 T00400011  RH  082%=      5-min Rain = 0
KCR2 140505Z 10012KT 04/01 A3024 RMK A01 T00390012  RH  082%=      5-min Rain = 0
KCR2 140506Z 10013KT 04/01 A3024 RMK A01 T00390012  RH  082%=      5-min Rain = 0
KCR2 140507Z 10013KT 04/01 A3024 RMK A01 T00390011  RH  082%=      5-min Rain = 0
KCR2 140508Z 10014KT 04/01 A3024 RMK A01 T00390011  RH  082%=      5-min Rain = 0
KCR2 140509Z 10013KT 04/01 A3024 RMK A01 T00390011  RH  082%=      5-min Rain = 0
KCR2 140510Z 10011KT 04/01 A3024 RMK A01 T00390012  RH  083%=      5-min Rain = 0
KCR2 140511Z 10012KT 04/01 A3024 RMK A01 T00380011  RH  083%=      5-min Rain = 0
KCR2 140512Z 10013KT 04/01 A3024 RMK A01 T00370012  RH  083%=      5-min Rain = 0
KCR2 140513Z 10013KT 04/01 A3024 RMK A01 T00370012  RH  083%=      5-min Rain = 0
KCR2 140514Z 10013KT 04/01 A3024 RMK A01 T00370011  RH  083%=      5-min Rain = 0
KCR2 140515Z 10013KT 04/01 A3024 RMK A01 T00370012  RH  083%=      5-min Rain = 0
KCR2 140516Z 10013KT 04/01 A3024 RMK A01 T00370011  RH  083%=      5-min Rain = 0
KCR2 140517Z 10013KT 04/01 A3024 RMK A01 T00370011  RH  083%=      5-min Rain = 0
KCR2 140518Z 10014KT 04/01 A3024 RMK A01 T00370011  RH  083%=      5-min Rain = 0
KCR2 140519Z 10014KT 04/01 A3024 RMK A01 T00360011  RH  083%=      5-min Rain = 0
KCR2 140520Z 10015KT 04/01 A3024 RMK A01 T00370011  RH  084%=      5-min Rain = 0
KCR2 140521Z 10013KT 04/01 A3024 RMK A01 T00360011  RH  084%=      5-min Rain = 0
KCR2 140522Z 10014KT 04/01 A3024 RMK A01 T00360011  RH  084%=      5-min Rain = 0
KCR2 140523Z 10014KT 04/01 A3024 RMK A01 T00360011  RH  084%=      5-min Rain = 0
KCR2 140524Z 10014KT 04/01 A3024 RMK A01 T00350011  RH  084%=      5-min Rain = 0
KCR2 140525Z 10014KT 04/01 A3024 RMK A01 T00350011  RH  084%=      5-min Rain = 0
KCR2 140526Z 10013KT 04/01 A3024 RMK A01 T00350011  RH  084%=      5-min Rain = 0
KCR2 140527Z 10013KT 04/01 A3024 RMK A01 T00350011  RH  084%=      5-min Rain = 0
KCR2 140528Z 10014KT 04/01 A3024 RMK A01 T00350011  RH  084%=      5-min Rain = 0
KCR2 140529Z 10014KT 04/01 A3024 RMK A01 T00350011  RH  084%=      5-min Rain = 0
KCR2 140530Z 10015KT 04/01 A3024 RMK A01 T00350011  RH  084%=      5-min Rain = 0
KCR2 140531Z 10013KT 04/01 A3024 RMK A01 T00350011  RH  084%=      5-min Rain = 0
KCR2 140532Z 10014KT 03/01 A3024 RMK A01 T00340011  RH  084%=      5-min Rain = 0
KCR2 140533Z 10014KT 03/01 A3024 RMK A01 T00340011  RH  085%=      5-min Rain = 0
KCR2 140534Z 10012KT 03/01 A3024 RMK A01 T00340011  RH  085%=      5-min Rain = 0
KCR2 140535Z 10013KT 03/01 A3025 RMK A01 T00340010  RH  085%=      5-min Rain = 0
KCR2 140536Z 10013KT 03/01 A3025 RMK A01 T00340010  RH  085%=      5-min Rain = 0
KCR2 140537Z 10014KT 03/01 A3025 RMK A01 T00330010  RH  085%=      5-min Rain = 0
KCR2 140538Z 10013KT 03/01 A3025 RMK A01 T00330010  RH  085%=      5-min Rain = 0
KCR2 140539Z 09014KT 03/01 A3025 RMK A01 T00330010  RH  085%=      5-min Rain = 0
KCR2 140540Z 10014KT 03/01 A3025 RMK A01 T00330010  RH  085%=      5-min Rain = 0
KCR2 140541Z 10013KT 03/01 A3025 RMK A01 T00330010  RH  085%=      5-min Rain = 0
KCR2 140542Z 10014KT 03/01 A3025 RMK A01 T00330010  RH  085%=      5-min Rain = 0
KCR2 140543Z 10012KT 03/01 A3025 RMK A01 T00330010  RH  085%=      5-min Rain = 0
KCR2 140544Z 09013KT 03/01 A3025 RMK A01 T00320010  RH  085%=      5-min Rain = 0
KCR2 140545Z 09014KT 03/01 A3025 RMK A01 T00320010  RH  085%=      5-min Rain = 0
KCR2 140546Z 09013KT 03/01 A3025 RMK A01 T00320010  RH  085%=      5-min Rain = 0
KCR2 140547Z 09013KT 03/01 A3025 RMK A01 T00320010  RH  085%=      5-min Rain = 0
KCR2 140548Z 09013KT 03/01 A3025 RMK A01 T00310009  RH  086%=      5-min Rain = 0
KCR2 140549Z 09014KT 03/01 A3025 RMK A01 T00310009  RH  085%=      5-min Rain = 0
KCR2 140550Z 09012KT 03/01 A3025 RMK A01 T00310009  RH  086%=      5-min Rain = 0
KCR2 140551Z 09014KT 03/01 A3025 RMK A01 T00300009  RH  086%=      5-min Rain = 0
KCR2 140552Z 09014KT 03/01 A3025 RMK A01 T00300008  RH  086%=      5-min Rain = 0
KCR2 140553Z 09016KT 03/01 A3025 RMK A01 T00300008  RH  086%=      5-min Rain = 0
KCR2 140554Z 09014KT 03/01 A3025 RMK A01 T00300008  RH  086%=      5-min Rain = 0
KCR2 140555Z 09014KT 03/01 A3025 RMK A01 T00300008  RH  086%=      5-min Rain = 0
KCR2 140556Z 09014KT 03/01 A3025 RMK A01 T00300008  RH  086%=      5-min Rain = 0
KCR2 140557Z 09013KT 03/01 A3025 RMK A01 T00300008  RH  086%=      5-min Rain = 0
KCR2 140558Z 10013KT 03/01 A3025 RMK A01 T00290008  RH  086%=      5-min Rain = 0
KCR2 140559Z 10015KT 03/01 A3025 RMK A01 T00290008  RH  086%=      5-min Rain = 0

Page generated in 0.1301 seconds.